<?xml version="1.0" encoding="UTF-8" standalone="no" ?>
<gpx xmlns="http://www.topografix.com/GPX/1/1" xmlns:xsi="http://www.w3.org/2001/XMLSchema-instance" xsi:schemaLocation="http://www.topografix.com/GPX/1/1 http://www.topografix.com/GPX/1/1/gpx.xsd" version="1.1" creator="VisuGPX - https://www.visugpx.com">
  <metadata>
    <name>ASLPM marche Esnandes le 07 septembre 2015</name>
    <desc><![CDATA[ASLPM marche à Esnandes le 07 09 2015
8,5 km 45 participants
]]></desc>
  </metadata>
  <trk>
    <name><![CDATA[Marche Esnandes]]></name>
    <trkseg>
      <trkpt lat="46.24967" lon="-1.10955">
        <ele>3.5999999046326</ele>
        <time>2015-09-07T07:05:30.000Z</time>
      </trkpt>
      <trkpt lat="46.24968" lon="-1.10953">
        <ele>3.5999999046326</ele>
        <time>2015-09-07T07:05:55.000Z</time>
      </trkpt>
      <trkpt lat="46.24968" lon="-1.10953">
        <ele>3.5999999046326</ele>
        <time>2015-09-07T07:06:02.000Z</time>
      </trkpt>
      <trkpt lat="46.24968" lon="-1.10952">
        <ele>3.5999999046326</ele>
        <time>2015-09-07T07:06:32.000Z</time>
      </trkpt>
      <trkpt lat="46.24968" lon="-1.10956">
        <ele>3.5999999046326</ele>
        <time>2015-09-07T07:06:47.000Z</time>
      </trkpt>
      <trkpt lat="46.2497" lon="-1.10968">
        <ele>3.5999999046326</ele>
        <time>2015-09-07T07:06:57.000Z</time>
      </trkpt>
      <trkpt lat="46.24971" lon="-1.10977">
        <ele>3.5999999046326</ele>
        <time>2015-09-07T07:07:03.000Z</time>
      </trkpt>
      <trkpt lat="46.24971" lon="-1.10978">
        <ele>3.5999999046326</ele>
        <time>2015-09-07T07:07:05.000Z</time>
      </trkpt>
      <trkpt lat="46.24974" lon="-1.10988">
        <ele>3.5999999046326</ele>
        <time>2015-09-07T07:07:14.000Z</time>
      </trkpt>
      <trkpt lat="46.24975" lon="-1.10994">
        <ele>3.7999999523163</ele>
        <time>2015-09-07T07:07:20.000Z</time>
      </trkpt>
      <trkpt lat="46.24977" lon="-1.11004">
        <ele>4</ele>
        <time>2015-09-07T07:07:27.000Z</time>
      </trkpt>
      <trkpt lat="46.24983" lon="-1.11021">
        <ele>4.5999999046326</ele>
        <time>2015-09-07T07:07:39.000Z</time>
      </trkpt>
      <trkpt lat="46.24989" lon="-1.11034">
        <ele>5</ele>
        <time>2015-09-07T07:07:49.000Z</time>
      </trkpt>
      <trkpt lat="46.24994" lon="-1.11047">
        <ele>5.4000000953674</ele>
        <time>2015-09-07T07:07:58.000Z</time>
      </trkpt>
      <trkpt lat="46.24999" lon="-1.11065">
        <ele>5.4000000953674</ele>
        <time>2015-09-07T07:08:09.000Z</time>
      </trkpt>
      <trkpt lat="46.25004" lon="-1.11081">
        <ele>5.4000000953674</ele>
        <time>2015-09-07T07:08:20.000Z</time>
      </trkpt>
      <trkpt lat="46.25009" lon="-1.11094">
        <ele>5.4000000953674</ele>
        <time>2015-09-07T07:08:30.000Z</time>
      </trkpt>
      <trkpt lat="46.25011" lon="-1.111">
        <ele>5.4000000953674</ele>
        <time>2015-09-07T07:08:36.000Z</time>
      </trkpt>
      <trkpt lat="46.25016" lon="-1.11114">
        <ele>5.1999998092651</ele>
        <time>2015-09-07T07:08:45.000Z</time>
      </trkpt>
      <trkpt lat="46.25019" lon="-1.11128">
        <ele>5</ele>
        <time>2015-09-07T07:08:54.000Z</time>
      </trkpt>
      <trkpt lat="46.25021" lon="-1.11138">
        <ele>5</ele>
        <time>2015-09-07T07:09:01.000Z</time>
      </trkpt>
      <trkpt lat="46.25026" lon="-1.11152">
        <ele>4.8000001907349</ele>
        <time>2015-09-07T07:09:08.000Z</time>
      </trkpt>
      <trkpt lat="46.25031" lon="-1.11171">
        <ele>4.5999999046326</ele>
        <time>2015-09-07T07:09:19.000Z</time>
      </trkpt>
      <trkpt lat="46.25036" lon="-1.1118">
        <ele>4.1999998092651</ele>
        <time>2015-09-07T07:09:26.000Z</time>
      </trkpt>
      <trkpt lat="46.2504" lon="-1.11196">
        <ele>4</ele>
        <time>2015-09-07T07:09:35.000Z</time>
      </trkpt>
      <trkpt lat="46.25041" lon="-1.11203">
        <ele>4</ele>
        <time>2015-09-07T07:09:39.000Z</time>
      </trkpt>
      <trkpt lat="46.25042" lon="-1.11206">
        <ele>4</ele>
        <time>2015-09-07T07:09:41.000Z</time>
      </trkpt>
      <trkpt lat="46.25042" lon="-1.11216">
        <ele>4</ele>
        <time>2015-09-07T07:09:46.000Z</time>
      </trkpt>
      <trkpt lat="46.25048" lon="-1.11232">
        <ele>3.7999999523163</ele>
        <time>2015-09-07T07:09:55.000Z</time>
      </trkpt>
      <trkpt lat="46.25052" lon="-1.11252">
        <ele>3.7999999523163</ele>
        <time>2015-09-07T07:10:06.000Z</time>
      </trkpt>
      <trkpt lat="46.25056" lon="-1.11265">
        <ele>4</ele>
        <time>2015-09-07T07:10:13.000Z</time>
      </trkpt>
      <trkpt lat="46.25058" lon="-1.1128">
        <ele>4.4000000953674</ele>
        <time>2015-09-07T07:10:21.000Z</time>
      </trkpt>
      <trkpt lat="46.25061" lon="-1.1129">
        <ele>4.5999999046326</ele>
        <time>2015-09-07T07:10:26.000Z</time>
      </trkpt>
      <trkpt lat="46.25065" lon="-1.11308">
        <ele>5</ele>
        <time>2015-09-07T07:10:36.000Z</time>
      </trkpt>
      <trkpt lat="46.25067" lon="-1.11325">
        <ele>5</ele>
        <time>2015-09-07T07:10:45.000Z</time>
      </trkpt>
      <trkpt lat="46.25069" lon="-1.11337">
        <ele>5.1999998092651</ele>
        <time>2015-09-07T07:10:52.000Z</time>
      </trkpt>
      <trkpt lat="46.25073" lon="-1.1135">
        <ele>5.1999998092651</ele>
        <time>2015-09-07T07:10:59.000Z</time>
      </trkpt>
      <trkpt lat="46.25077" lon="-1.11366">
        <ele>5.4000000953674</ele>
        <time>2015-09-07T07:11:08.000Z</time>
      </trkpt>
      <trkpt lat="46.25082" lon="-1.11385">
        <ele>5.4000000953674</ele>
        <time>2015-09-07T07:11:16.000Z</time>
      </trkpt>
      <trkpt lat="46.25089" lon="-1.11404">
        <ele>5.4000000953674</ele>
        <time>2015-09-07T07:11:27.000Z</time>
      </trkpt>
      <trkpt lat="46.2509" lon="-1.11406">
        <ele>5.4000000953674</ele>
        <time>2015-09-07T07:11:28.000Z</time>
      </trkpt>
      <trkpt lat="46.25093" lon="-1.1142">
        <ele>5.5999999046326</ele>
        <time>2015-09-07T07:11:37.000Z</time>
      </trkpt>
      <trkpt lat="46.25099" lon="-1.11432">
        <ele>5.5999999046326</ele>
        <time>2015-09-07T07:11:45.000Z</time>
      </trkpt>
      <trkpt lat="46.25104" lon="-1.11445">
        <ele>5.5999999046326</ele>
        <time>2015-09-07T07:11:53.000Z</time>
      </trkpt>
      <trkpt lat="46.25109" lon="-1.11458">
        <ele>5.5999999046326</ele>
        <time>2015-09-07T07:12:02.000Z</time>
      </trkpt>
      <trkpt lat="46.25113" lon="-1.11466">
        <ele>5.5999999046326</ele>
        <time>2015-09-07T07:12:08.000Z</time>
      </trkpt>
      <trkpt lat="46.25119" lon="-1.11484">
        <ele>5.8000001907349</ele>
        <time>2015-09-07T07:12:18.000Z</time>
      </trkpt>
      <trkpt lat="46.25123" lon="-1.11491">
        <ele>5.8000001907349</ele>
        <time>2015-09-07T07:12:25.000Z</time>
      </trkpt>
      <trkpt lat="46.25122" lon="-1.11495">
        <ele>5.8000001907349</ele>
        <time>2015-09-07T07:13:04.000Z</time>
      </trkpt>
      <trkpt lat="46.25125" lon="-1.11504">
        <ele>5.8000001907349</ele>
        <time>2015-09-07T07:13:12.000Z</time>
      </trkpt>
      <trkpt lat="46.25129" lon="-1.11519">
        <ele>5.5999999046326</ele>
        <time>2015-09-07T07:13:20.000Z</time>
      </trkpt>
      <trkpt lat="46.25125" lon="-1.11527">
        <ele>5.8000001907349</ele>
        <time>2015-09-07T07:13:27.000Z</time>
      </trkpt>
      <trkpt lat="46.25117" lon="-1.11531">
        <ele>6</ele>
        <time>2015-09-07T07:13:35.000Z</time>
      </trkpt>
      <trkpt lat="46.25109" lon="-1.11537">
        <ele>6.4000000953674</ele>
        <time>2015-09-07T07:13:44.000Z</time>
      </trkpt>
      <trkpt lat="46.25105" lon="-1.11545">
        <ele>6.4000000953674</ele>
        <time>2015-09-07T07:13:50.000Z</time>
      </trkpt>
      <trkpt lat="46.25104" lon="-1.11548">
        <ele>6.4000000953674</ele>
        <time>2015-09-07T07:13:53.000Z</time>
      </trkpt>
      <trkpt lat="46.25108" lon="-1.11558">
        <ele>6.4000000953674</ele>
        <time>2015-09-07T07:14:00.000Z</time>
      </trkpt>
      <trkpt lat="46.25113" lon="-1.11571">
        <ele>6.4000000953674</ele>
        <time>2015-09-07T07:14:09.000Z</time>
      </trkpt>
      <trkpt lat="46.25118" lon="-1.11589">
        <ele>6.4000000953674</ele>
        <time>2015-09-07T07:14:20.000Z</time>
      </trkpt>
      <trkpt lat="46.25121" lon="-1.11602">
        <ele>6.4000000953674</ele>
        <time>2015-09-07T07:14:29.000Z</time>
      </trkpt>
      <trkpt lat="46.25124" lon="-1.11613">
        <ele>6.4000000953674</ele>
        <time>2015-09-07T07:14:37.000Z</time>
      </trkpt>
      <trkpt lat="46.25127" lon="-1.11623">
        <ele>6.4000000953674</ele>
        <time>2015-09-07T07:14:45.000Z</time>
      </trkpt>
      <trkpt lat="46.25129" lon="-1.11634">
        <ele>6.4000000953674</ele>
        <time>2015-09-07T07:14:52.000Z</time>
      </trkpt>
      <trkpt lat="46.25132" lon="-1.11642">
        <ele>6.4000000953674</ele>
        <time>2015-09-07T07:14:58.000Z</time>
      </trkpt>
      <trkpt lat="46.25133" lon="-1.11647">
        <ele>6.4000000953674</ele>
        <time>2015-09-07T07:15:05.000Z</time>
      </trkpt>
      <trkpt lat="46.25135" lon="-1.11653">
        <ele>6.4000000953674</ele>
        <time>2015-09-07T07:15:11.000Z</time>
      </trkpt>
      <trkpt lat="46.25137" lon="-1.11661">
        <ele>6.4000000953674</ele>
        <time>2015-09-07T07:15:17.000Z</time>
      </trkpt>
      <trkpt lat="46.2514" lon="-1.11671">
        <ele>6.4000000953674</ele>
        <time>2015-09-07T07:15:25.000Z</time>
      </trkpt>
      <trkpt lat="46.2514" lon="-1.11683">
        <ele>6.5999999046326</ele>
        <time>2015-09-07T07:15:32.000Z</time>
      </trkpt>
      <trkpt lat="46.25142" lon="-1.11694">
        <ele>6.8000001907349</ele>
        <time>2015-09-07T07:15:39.000Z</time>
      </trkpt>
      <trkpt lat="46.25147" lon="-1.11706">
        <ele>6.5999999046326</ele>
        <time>2015-09-07T07:15:47.000Z</time>
      </trkpt>
      <trkpt lat="46.25152" lon="-1.11717">
        <ele>6.5999999046326</ele>
        <time>2015-09-07T07:15:55.000Z</time>
      </trkpt>
      <trkpt lat="46.25154" lon="-1.11723">
        <ele>6.5999999046326</ele>
        <time>2015-09-07T07:15:59.000Z</time>
      </trkpt>
      <trkpt lat="46.25157" lon="-1.11731">
        <ele>6.5999999046326</ele>
        <time>2015-09-07T07:16:05.000Z</time>
      </trkpt>
      <trkpt lat="46.25158" lon="-1.1174">
        <ele>6.8000001907349</ele>
        <time>2015-09-07T07:16:11.000Z</time>
      </trkpt>
      <trkpt lat="46.25164" lon="-1.11756">
        <ele>6.8000001907349</ele>
        <time>2015-09-07T07:16:21.000Z</time>
      </trkpt>
      <trkpt lat="46.25171" lon="-1.11772">
        <ele>6.8000001907349</ele>
        <time>2015-09-07T07:16:31.000Z</time>
      </trkpt>
      <trkpt lat="46.25177" lon="-1.1179">
        <ele>6.8000001907349</ele>
        <time>2015-09-07T07:16:42.000Z</time>
      </trkpt>
      <trkpt lat="46.25183" lon="-1.11808">
        <ele>6.4000000953674</ele>
        <time>2015-09-07T07:16:53.000Z</time>
      </trkpt>
      <trkpt lat="46.2519" lon="-1.11826">
        <ele>6.4000000953674</ele>
        <time>2015-09-07T07:17:04.000Z</time>
      </trkpt>
      <trkpt lat="46.25196" lon="-1.11842">
        <ele>6.4000000953674</ele>
        <time>2015-09-07T07:17:14.000Z</time>
      </trkpt>
      <trkpt lat="46.252" lon="-1.11855">
        <ele>6.5999999046326</ele>
        <time>2015-09-07T07:17:23.000Z</time>
      </trkpt>
      <trkpt lat="46.25205" lon="-1.11871">
        <ele>6.5999999046326</ele>
        <time>2015-09-07T07:17:33.000Z</time>
      </trkpt>
      <trkpt lat="46.25211" lon="-1.11879">
        <ele>6.1999998092651</ele>
        <time>2015-09-07T07:17:41.000Z</time>
      </trkpt>
      <trkpt lat="46.25212" lon="-1.1188">
        <ele>6.1999998092651</ele>
        <time>2015-09-07T07:17:42.000Z</time>
      </trkpt>
      <trkpt lat="46.25212" lon="-1.11883">
        <ele>6.1999998092651</ele>
        <time>2015-09-07T07:17:44.000Z</time>
      </trkpt>
      <trkpt lat="46.25215" lon="-1.11899">
        <ele>6.4000000953674</ele>
        <time>2015-09-07T07:17:55.000Z</time>
      </trkpt>
      <trkpt lat="46.25218" lon="-1.11911">
        <ele>6.5999999046326</ele>
        <time>2015-09-07T07:18:03.000Z</time>
      </trkpt>
      <trkpt lat="46.25219" lon="-1.11915">
        <ele>6.5999999046326</ele>
        <time>2015-09-07T07:18:05.000Z</time>
      </trkpt>
      <trkpt lat="46.25221" lon="-1.11924">
        <ele>6.8000001907349</ele>
        <time>2015-09-07T07:18:11.000Z</time>
      </trkpt>
      <trkpt lat="46.25222" lon="-1.11927">
        <ele>6.8000001907349</ele>
        <time>2015-09-07T07:18:13.000Z</time>
      </trkpt>
      <trkpt lat="46.25225" lon="-1.11938">
        <ele>7</ele>
        <time>2015-09-07T07:18:20.000Z</time>
      </trkpt>
      <trkpt lat="46.25229" lon="-1.11951">
        <ele>7.1999998092651</ele>
        <time>2015-09-07T07:18:28.000Z</time>
      </trkpt>
      <trkpt lat="46.2523" lon="-1.11961">
        <ele>7.4000000953674</ele>
        <time>2015-09-07T07:18:35.000Z</time>
      </trkpt>
      <trkpt lat="46.25232" lon="-1.11973">
        <ele>7.8000001907349</ele>
        <time>2015-09-07T07:18:42.000Z</time>
      </trkpt>
      <trkpt lat="46.25232" lon="-1.11977">
        <ele>7.8000001907349</ele>
        <time>2015-09-07T07:18:44.000Z</time>
      </trkpt>
      <trkpt lat="46.25235" lon="-1.11993">
        <ele>8.1999998092651</ele>
        <time>2015-09-07T07:18:53.000Z</time>
      </trkpt>
      <trkpt lat="46.25236" lon="-1.12007">
        <ele>8.6000003814697</ele>
        <time>2015-09-07T07:19:01.000Z</time>
      </trkpt>
      <trkpt lat="46.25237" lon="-1.12017">
        <ele>8.8000001907349</ele>
        <time>2015-09-07T07:19:07.000Z</time>
      </trkpt>
      <trkpt lat="46.25237" lon="-1.12018">
        <ele>9</ele>
        <time>2015-09-07T07:19:08.000Z</time>
      </trkpt>
      <trkpt lat="46.25238" lon="-1.12023">
        <ele>9</ele>
        <time>2015-09-07T07:19:11.000Z</time>
      </trkpt>
      <trkpt lat="46.25238" lon="-1.1203">
        <ele>9.1999998092651</ele>
        <time>2015-09-07T07:19:15.000Z</time>
      </trkpt>
      <trkpt lat="46.25239" lon="-1.12034">
        <ele>9.3999996185303</ele>
        <time>2015-09-07T07:19:17.000Z</time>
      </trkpt>
      <trkpt lat="46.2524" lon="-1.12044">
        <ele>9.6000003814697</ele>
        <time>2015-09-07T07:19:23.000Z</time>
      </trkpt>
      <trkpt lat="46.25242" lon="-1.12061">
        <ele>9.6000003814697</ele>
        <time>2015-09-07T07:19:33.000Z</time>
      </trkpt>
      <trkpt lat="46.25243" lon="-1.12077">
        <ele>9.6000003814697</ele>
        <time>2015-09-07T07:19:43.000Z</time>
      </trkpt>
      <trkpt lat="46.25243" lon="-1.12078">
        <ele>9.6000003814697</ele>
        <time>2015-09-07T07:19:44.000Z</time>
      </trkpt>
      <trkpt lat="46.25244" lon="-1.12087">
        <ele>9.8000001907349</ele>
        <time>2015-09-07T07:19:49.000Z</time>
      </trkpt>
      <trkpt lat="46.25247" lon="-1.12107">
        <ele>9.6000003814697</ele>
        <time>2015-09-07T07:20:00.000Z</time>
      </trkpt>
      <trkpt lat="46.25249" lon="-1.12121">
        <ele>9.6000003814697</ele>
        <time>2015-09-07T07:20:08.000Z</time>
      </trkpt>
      <trkpt lat="46.2525" lon="-1.12133">
        <ele>9.6000003814697</ele>
        <time>2015-09-07T07:20:15.000Z</time>
      </trkpt>
      <trkpt lat="46.25251" lon="-1.12143">
        <ele>9.6000003814697</ele>
        <time>2015-09-07T07:20:21.000Z</time>
      </trkpt>
      <trkpt lat="46.25252" lon="-1.12152">
        <ele>9.6000003814697</ele>
        <time>2015-09-07T07:20:27.000Z</time>
      </trkpt>
      <trkpt lat="46.25254" lon="-1.12167">
        <ele>9.3999996185303</ele>
        <time>2015-09-07T07:20:36.000Z</time>
      </trkpt>
      <trkpt lat="46.25255" lon="-1.12171">
        <ele>9.1999998092651</ele>
        <time>2015-09-07T07:20:38.000Z</time>
      </trkpt>
      <trkpt lat="46.25254" lon="-1.12186">
        <ele>9.3999996185303</ele>
        <time>2015-09-07T07:20:47.000Z</time>
      </trkpt>
      <trkpt lat="46.25253" lon="-1.12201">
        <ele>9.3999996185303</ele>
        <time>2015-09-07T07:20:55.000Z</time>
      </trkpt>
      <trkpt lat="46.25255" lon="-1.12207">
        <ele>9.1999998092651</ele>
        <time>2015-09-07T07:20:59.000Z</time>
      </trkpt>
      <trkpt lat="46.25259" lon="-1.12226">
        <ele>8.8000001907349</ele>
        <time>2015-09-07T07:21:09.000Z</time>
      </trkpt>
      <trkpt lat="46.25261" lon="-1.12242">
        <ele>8.8000001907349</ele>
        <time>2015-09-07T07:21:17.000Z</time>
      </trkpt>
      <trkpt lat="46.25265" lon="-1.12265">
        <ele>8.6000003814697</ele>
        <time>2015-09-07T07:21:28.000Z</time>
      </trkpt>
      <trkpt lat="46.25268" lon="-1.12282">
        <ele>8.3999996185303</ele>
        <time>2015-09-07T07:21:36.000Z</time>
      </trkpt>
      <trkpt lat="46.25271" lon="-1.12302">
        <ele>8</ele>
        <time>2015-09-07T07:21:45.000Z</time>
      </trkpt>
      <trkpt lat="46.25276" lon="-1.12327">
        <ele>7.4000000953674</ele>
        <time>2015-09-07T07:21:57.000Z</time>
      </trkpt>
      <trkpt lat="46.25279" lon="-1.1235">
        <ele>7.4000000953674</ele>
        <time>2015-09-07T07:22:08.000Z</time>
      </trkpt>
      <trkpt lat="46.25284" lon="-1.12376">
        <ele>8.1999998092651</ele>
        <time>2015-09-07T07:22:21.000Z</time>
      </trkpt>
      <trkpt lat="46.25288" lon="-1.12397">
        <ele>8.8000001907349</ele>
        <time>2015-09-07T07:22:32.000Z</time>
      </trkpt>
      <trkpt lat="46.25293" lon="-1.12419">
        <ele>8.3999996185303</ele>
        <time>2015-09-07T07:22:44.000Z</time>
      </trkpt>
      <trkpt lat="46.25297" lon="-1.12439">
        <ele>8</ele>
        <time>2015-09-07T07:22:55.000Z</time>
      </trkpt>
      <trkpt lat="46.25301" lon="-1.12458">
        <ele>7.8000001907349</ele>
        <time>2015-09-07T07:23:06.000Z</time>
      </trkpt>
      <trkpt lat="46.25306" lon="-1.12484">
        <ele>7.5999999046326</ele>
        <time>2015-09-07T07:23:20.000Z</time>
      </trkpt>
      <trkpt lat="46.25309" lon="-1.12504">
        <ele>7.5999999046326</ele>
        <time>2015-09-07T07:23:31.000Z</time>
      </trkpt>
      <trkpt lat="46.25313" lon="-1.1253">
        <ele>7.5999999046326</ele>
        <time>2015-09-07T07:23:45.000Z</time>
      </trkpt>
      <trkpt lat="46.25316" lon="-1.12551">
        <ele>7.5999999046326</ele>
        <time>2015-09-07T07:23:56.000Z</time>
      </trkpt>
      <trkpt lat="46.25319" lon="-1.12568">
        <ele>7.5999999046326</ele>
        <time>2015-09-07T07:24:05.000Z</time>
      </trkpt>
      <trkpt lat="46.25324" lon="-1.12594">
        <ele>7.4000000953674</ele>
        <time>2015-09-07T07:24:19.000Z</time>
      </trkpt>
      <trkpt lat="46.25327" lon="-1.12614">
        <ele>7.4000000953674</ele>
        <time>2015-09-07T07:24:30.000Z</time>
      </trkpt>
      <trkpt lat="46.2533" lon="-1.12632">
        <ele>7.4000000953674</ele>
        <time>2015-09-07T07:24:40.000Z</time>
      </trkpt>
      <trkpt lat="46.25333" lon="-1.12654">
        <ele>6.8000001907349</ele>
        <time>2015-09-07T07:24:52.000Z</time>
      </trkpt>
      <trkpt lat="46.25335" lon="-1.12674">
        <ele>6.4000000953674</ele>
        <time>2015-09-07T07:25:03.000Z</time>
      </trkpt>
      <trkpt lat="46.25337" lon="-1.12694">
        <ele>6</ele>
        <time>2015-09-07T07:25:14.000Z</time>
      </trkpt>
      <trkpt lat="46.25337" lon="-1.12714">
        <ele>6</ele>
        <time>2015-09-07T07:25:25.000Z</time>
      </trkpt>
      <trkpt lat="46.25337" lon="-1.1274">
        <ele>6.1999998092651</ele>
        <time>2015-09-07T07:25:39.000Z</time>
      </trkpt>
      <trkpt lat="46.25336" lon="-1.12762">
        <ele>6.4000000953674</ele>
        <time>2015-09-07T07:25:51.000Z</time>
      </trkpt>
      <trkpt lat="46.25335" lon="-1.12786">
        <ele>6.8000001907349</ele>
        <time>2015-09-07T07:26:04.000Z</time>
      </trkpt>
      <trkpt lat="46.25333" lon="-1.12807">
        <ele>7</ele>
        <time>2015-09-07T07:26:15.000Z</time>
      </trkpt>
      <trkpt lat="46.25332" lon="-1.1283">
        <ele>6.8000001907349</ele>
        <time>2015-09-07T07:26:27.000Z</time>
      </trkpt>
      <trkpt lat="46.25331" lon="-1.12854">
        <ele>6.8000001907349</ele>
        <time>2015-09-07T07:26:40.000Z</time>
      </trkpt>
      <trkpt lat="46.2533" lon="-1.12876">
        <ele>6.5999999046326</ele>
        <time>2015-09-07T07:26:52.000Z</time>
      </trkpt>
      <trkpt lat="46.25329" lon="-1.12896">
        <ele>6.8000001907349</ele>
        <time>2015-09-07T07:27:03.000Z</time>
      </trkpt>
      <trkpt lat="46.25328" lon="-1.12916">
        <ele>6.5999999046326</ele>
        <time>2015-09-07T07:27:14.000Z</time>
      </trkpt>
      <trkpt lat="46.25327" lon="-1.12939">
        <ele>6.4000000953674</ele>
        <time>2015-09-07T07:27:26.000Z</time>
      </trkpt>
      <trkpt lat="46.25326" lon="-1.12952">
        <ele>6.4000000953674</ele>
        <time>2015-09-07T07:27:34.000Z</time>
      </trkpt>
      <trkpt lat="46.25325" lon="-1.12978">
        <ele>6.1999998092651</ele>
        <time>2015-09-07T07:27:48.000Z</time>
      </trkpt>
      <trkpt lat="46.25322" lon="-1.12999">
        <ele>6.1999998092651</ele>
        <time>2015-09-07T07:27:59.000Z</time>
      </trkpt>
      <trkpt lat="46.25319" lon="-1.13025">
        <ele>6</ele>
        <time>2015-09-07T07:28:13.000Z</time>
      </trkpt>
      <trkpt lat="46.25318" lon="-1.13048">
        <ele>5.8000001907349</ele>
        <time>2015-09-07T07:28:25.000Z</time>
      </trkpt>
      <trkpt lat="46.25319" lon="-1.13072">
        <ele>5.8000001907349</ele>
        <time>2015-09-07T07:28:38.000Z</time>
      </trkpt>
      <trkpt lat="46.2532" lon="-1.13095">
        <ele>5.5999999046326</ele>
        <time>2015-09-07T07:28:50.000Z</time>
      </trkpt>
      <trkpt lat="46.25321" lon="-1.13103">
        <ele>5.5999999046326</ele>
        <time>2015-09-07T07:28:55.000Z</time>
      </trkpt>
      <trkpt lat="46.2532" lon="-1.13105">
        <ele>5.5999999046326</ele>
        <time>2015-09-07T07:28:57.000Z</time>
      </trkpt>
      <trkpt lat="46.25321" lon="-1.13116">
        <ele>5.5999999046326</ele>
        <time>2015-09-07T07:29:03.000Z</time>
      </trkpt>
      <trkpt lat="46.25323" lon="-1.13136">
        <ele>5.5999999046326</ele>
        <time>2015-09-07T07:29:13.000Z</time>
      </trkpt>
      <trkpt lat="46.25325" lon="-1.13162">
        <ele>5.5999999046326</ele>
        <time>2015-09-07T07:29:26.000Z</time>
      </trkpt>
      <trkpt lat="46.25327" lon="-1.13183">
        <ele>5.8000001907349</ele>
        <time>2015-09-07T07:29:37.000Z</time>
      </trkpt>
      <trkpt lat="46.25328" lon="-1.13199">
        <ele>6</ele>
        <time>2015-09-07T07:29:47.000Z</time>
      </trkpt>
      <trkpt lat="46.25329" lon="-1.13215">
        <ele>6</ele>
        <time>2015-09-07T07:29:57.000Z</time>
      </trkpt>
      <trkpt lat="46.2533" lon="-1.13234">
        <ele>6</ele>
        <time>2015-09-07T07:30:08.000Z</time>
      </trkpt>
      <trkpt lat="46.25332" lon="-1.13253">
        <ele>6.1999998092651</ele>
        <time>2015-09-07T07:30:19.000Z</time>
      </trkpt>
      <trkpt lat="46.25334" lon="-1.13269">
        <ele>6.1999998092651</ele>
        <time>2015-09-07T07:30:28.000Z</time>
      </trkpt>
      <trkpt lat="46.25339" lon="-1.1329">
        <ele>6.1999998092651</ele>
        <time>2015-09-07T07:30:40.000Z</time>
      </trkpt>
      <trkpt lat="46.25346" lon="-1.13309">
        <ele>6</ele>
        <time>2015-09-07T07:30:52.000Z</time>
      </trkpt>
      <trkpt lat="46.25353" lon="-1.13324">
        <ele>5.5999999046326</ele>
        <time>2015-09-07T07:31:02.000Z</time>
      </trkpt>
      <trkpt lat="46.25358" lon="-1.13334">
        <ele>5.1999998092651</ele>
        <time>2015-09-07T07:31:09.000Z</time>
      </trkpt>
      <trkpt lat="46.25366" lon="-1.13353">
        <ele>4.8000001907349</ele>
        <time>2015-09-07T07:31:21.000Z</time>
      </trkpt>
      <trkpt lat="46.2537" lon="-1.13368">
        <ele>4.5999999046326</ele>
        <time>2015-09-07T07:31:30.000Z</time>
      </trkpt>
      <trkpt lat="46.25376" lon="-1.13387">
        <ele>4.1999998092651</ele>
        <time>2015-09-07T07:31:41.000Z</time>
      </trkpt>
      <trkpt lat="46.2538" lon="-1.13401">
        <ele>3.7999999523163</ele>
        <time>2015-09-07T07:31:49.000Z</time>
      </trkpt>
      <trkpt lat="46.25385" lon="-1.13422">
        <ele>3.5999999046326</ele>
        <time>2015-09-07T07:32:01.000Z</time>
      </trkpt>
      <trkpt lat="46.25389" lon="-1.13444">
        <ele>3.4000000953674</ele>
        <time>2015-09-07T07:32:13.000Z</time>
      </trkpt>
      <trkpt lat="46.25389" lon="-1.13465">
        <ele>3.4000000953674</ele>
        <time>2015-09-07T07:32:24.000Z</time>
      </trkpt>
      <trkpt lat="46.25386" lon="-1.13487">
        <ele>3.5999999046326</ele>
        <time>2015-09-07T07:32:36.000Z</time>
      </trkpt>
      <trkpt lat="46.25384" lon="-1.13505">
        <ele>3.7999999523163</ele>
        <time>2015-09-07T07:32:46.000Z</time>
      </trkpt>
      <trkpt lat="46.25382" lon="-1.13526">
        <ele>3.7999999523163</ele>
        <time>2015-09-07T07:32:58.000Z</time>
      </trkpt>
      <trkpt lat="46.25382" lon="-1.13527">
        <ele>3.7999999523163</ele>
        <time>2015-09-07T07:32:59.000Z</time>
      </trkpt>
      <trkpt lat="46.25384" lon="-1.1353">
        <ele>3.7999999523163</ele>
        <time>2015-09-07T07:33:02.000Z</time>
      </trkpt>
      <trkpt lat="46.25383" lon="-1.13541">
        <ele>3.7999999523163</ele>
        <time>2015-09-07T07:33:09.000Z</time>
      </trkpt>
      <trkpt lat="46.25383" lon="-1.13563">
        <ele>3.7999999523163</ele>
        <time>2015-09-07T07:33:20.000Z</time>
      </trkpt>
      <trkpt lat="46.25384" lon="-1.13586">
        <ele>3.7999999523163</ele>
        <time>2015-09-07T07:33:32.000Z</time>
      </trkpt>
      <trkpt lat="46.25384" lon="-1.13636">
        <ele>3</ele>
        <time>2015-09-07T07:33:58.000Z</time>
      </trkpt>
      <trkpt lat="46.25378" lon="-1.13656">
        <ele>3.5999999046326</ele>
        <time>2015-09-07T07:34:09.000Z</time>
      </trkpt>
      <trkpt lat="46.25374" lon="-1.13673">
        <ele>4.5999999046326</ele>
        <time>2015-09-07T07:34:18.000Z</time>
      </trkpt>
      <trkpt lat="46.25374" lon="-1.13692">
        <ele>5.5999999046326</ele>
        <time>2015-09-07T07:34:28.000Z</time>
      </trkpt>
      <trkpt lat="46.25376" lon="-1.13718">
        <ele>7.1999998092651</ele>
        <time>2015-09-07T07:34:42.000Z</time>
      </trkpt>
      <trkpt lat="46.25376" lon="-1.13745">
        <ele>9</ele>
        <time>2015-09-07T07:34:56.000Z</time>
      </trkpt>
      <trkpt lat="46.25374" lon="-1.13759">
        <ele>9</ele>
        <time>2015-09-07T07:35:04.000Z</time>
      </trkpt>
      <trkpt lat="46.2537" lon="-1.13784">
        <ele>9</ele>
        <time>2015-09-07T07:35:17.000Z</time>
      </trkpt>
      <trkpt lat="46.25368" lon="-1.13806">
        <ele>9</ele>
        <time>2015-09-07T07:35:29.000Z</time>
      </trkpt>
      <trkpt lat="46.25365" lon="-1.1383">
        <ele>7.8000001907349</ele>
        <time>2015-09-07T07:35:43.000Z</time>
      </trkpt>
      <trkpt lat="46.25364" lon="-1.13844">
        <ele>7.5999999046326</ele>
        <time>2015-09-07T07:35:54.000Z</time>
      </trkpt>
      <trkpt lat="46.25364" lon="-1.13849">
        <ele>7.5999999046326</ele>
        <time>2015-09-07T07:37:32.000Z</time>
      </trkpt>
      <trkpt lat="46.25362" lon="-1.13855">
        <ele>7.5999999046326</ele>
        <time>2015-09-07T07:37:47.000Z</time>
      </trkpt>
      <trkpt lat="46.25361" lon="-1.13861">
        <ele>7.5999999046326</ele>
        <time>2015-09-07T07:37:56.000Z</time>
      </trkpt>
      <trkpt lat="46.25356" lon="-1.13864">
        <ele>7.5999999046326</ele>
        <time>2015-09-07T07:38:03.000Z</time>
      </trkpt>
      <trkpt lat="46.25349" lon="-1.13871">
        <ele>7.4000000953674</ele>
        <time>2015-09-07T07:38:12.000Z</time>
      </trkpt>
      <trkpt lat="46.25347" lon="-1.13876">
        <ele>7.4000000953674</ele>
        <time>2015-09-07T07:38:19.000Z</time>
      </trkpt>
      <trkpt lat="46.25345" lon="-1.13883">
        <ele>7.4000000953674</ele>
        <time>2015-09-07T07:38:26.000Z</time>
      </trkpt>
      <trkpt lat="46.25343" lon="-1.13888">
        <ele>7.4000000953674</ele>
        <time>2015-09-07T07:38:32.000Z</time>
      </trkpt>
      <trkpt lat="46.2534" lon="-1.13897">
        <ele>5.5999999046326</ele>
        <time>2015-09-07T07:38:41.000Z</time>
      </trkpt>
      <trkpt lat="46.25338" lon="-1.13901">
        <ele>5.5999999046326</ele>
        <time>2015-09-07T07:38:48.000Z</time>
      </trkpt>
      <trkpt lat="46.2534" lon="-1.13898">
        <ele>5.5999999046326</ele>
        <time>2015-09-07T07:39:03.000Z</time>
      </trkpt>
      <trkpt lat="46.25338" lon="-1.13901">
        <ele>5.5999999046326</ele>
        <time>2015-09-07T07:39:10.000Z</time>
      </trkpt>
      <trkpt lat="46.25338" lon="-1.13903">
        <ele>5.4000000953674</ele>
        <time>2015-09-07T07:39:17.000Z</time>
      </trkpt>
      <trkpt lat="46.25337" lon="-1.13907">
        <ele>5.4000000953674</ele>
        <time>2015-09-07T07:39:24.000Z</time>
      </trkpt>
      <trkpt lat="46.25337" lon="-1.13907">
        <ele>5.4000000953674</ele>
        <time>2015-09-07T07:39:32.000Z</time>
      </trkpt>
      <trkpt lat="46.25337" lon="-1.13912">
        <ele>5.1999998092651</ele>
        <time>2015-09-07T07:39:51.000Z</time>
      </trkpt>
      <trkpt lat="46.25336" lon="-1.13915">
        <ele>5.1999998092651</ele>
        <time>2015-09-07T07:39:58.000Z</time>
      </trkpt>
      <trkpt lat="46.25333" lon="-1.13924">
        <ele>5</ele>
        <time>2015-09-07T07:40:06.000Z</time>
      </trkpt>
      <trkpt lat="46.2533" lon="-1.13934">
        <ele>4.8000001907349</ele>
        <time>2015-09-07T07:40:14.000Z</time>
      </trkpt>
      <trkpt lat="46.25323" lon="-1.13949">
        <ele>4.5999999046326</ele>
        <time>2015-09-07T07:40:25.000Z</time>
      </trkpt>
      <trkpt lat="46.25318" lon="-1.13967">
        <ele>4</ele>
        <time>2015-09-07T07:40:36.000Z</time>
      </trkpt>
      <trkpt lat="46.25315" lon="-1.13977">
        <ele>3.7999999523163</ele>
        <time>2015-09-07T07:40:45.000Z</time>
      </trkpt>
      <trkpt lat="46.25313" lon="-1.13984">
        <ele>3.7999999523163</ele>
        <time>2015-09-07T07:40:51.000Z</time>
      </trkpt>
      <trkpt lat="46.25311" lon="-1.14002">
        <ele>3.2000000476837</ele>
        <time>2015-09-07T07:41:02.000Z</time>
      </trkpt>
      <trkpt lat="46.25309" lon="-1.14021">
        <ele>2.5999999046326</ele>
        <time>2015-09-07T07:41:13.000Z</time>
      </trkpt>
      <trkpt lat="46.25308" lon="-1.14024">
        <ele>2.4000000953674</ele>
        <time>2015-09-07T07:41:15.000Z</time>
      </trkpt>
      <trkpt lat="46.25299" lon="-1.14027">
        <ele>2.5999999046326</ele>
        <time>2015-09-07T07:41:23.000Z</time>
      </trkpt>
      <trkpt lat="46.25284" lon="-1.14028">
        <ele>2.7999999523163</ele>
        <time>2015-09-07T07:41:35.000Z</time>
      </trkpt>
      <trkpt lat="46.25268" lon="-1.14029">
        <ele>3.2000000476837</ele>
        <time>2015-09-07T07:41:48.000Z</time>
      </trkpt>
      <trkpt lat="46.25253" lon="-1.14031">
        <ele>3.5999999046326</ele>
        <time>2015-09-07T07:42:00.000Z</time>
      </trkpt>
      <trkpt lat="46.2524" lon="-1.14033">
        <ele>4</ele>
        <time>2015-09-07T07:42:11.000Z</time>
      </trkpt>
      <trkpt lat="46.25225" lon="-1.14037">
        <ele>4</ele>
        <time>2015-09-07T07:42:23.000Z</time>
      </trkpt>
      <trkpt lat="46.25209" lon="-1.1404">
        <ele>3.7999999523163</ele>
        <time>2015-09-07T07:42:36.000Z</time>
      </trkpt>
      <trkpt lat="46.25197" lon="-1.1404">
        <ele>3.5999999046326</ele>
        <time>2015-09-07T07:42:46.000Z</time>
      </trkpt>
      <trkpt lat="46.25184" lon="-1.14049">
        <ele>3</ele>
        <time>2015-09-07T07:42:57.000Z</time>
      </trkpt>
      <trkpt lat="46.25177" lon="-1.14062">
        <ele>2.4000000953674</ele>
        <time>2015-09-07T07:43:06.000Z</time>
      </trkpt>
      <trkpt lat="46.25171" lon="-1.14074">
        <ele>1.7999999523163</ele>
        <time>2015-09-07T07:43:15.000Z</time>
      </trkpt>
      <trkpt lat="46.2516" lon="-1.14082">
        <ele>1.3999999761581</ele>
        <time>2015-09-07T07:43:24.000Z</time>
      </trkpt>
      <trkpt lat="46.25151" lon="-1.1409">
        <ele>1</ele>
        <time>2015-09-07T07:43:32.000Z</time>
      </trkpt>
      <trkpt lat="46.25142" lon="-1.14094">
        <ele>0.80000001192093</ele>
        <time>2015-09-07T07:43:42.000Z</time>
      </trkpt>
      <trkpt lat="46.25142" lon="-1.14094">
        <ele>0.80000001192093</ele>
        <time>2015-09-07T07:43:50.000Z</time>
      </trkpt>
      <trkpt lat="46.25139" lon="-1.14096">
        <ele>0.80000001192093</ele>
        <time>2015-09-07T07:44:17.000Z</time>
      </trkpt>
      <trkpt lat="46.25134" lon="-1.14096">
        <ele>0.80000001192093</ele>
        <time>2015-09-07T07:44:24.000Z</time>
      </trkpt>
      <trkpt lat="46.25129" lon="-1.14096">
        <ele>0.80000001192093</ele>
        <time>2015-09-07T07:44:29.000Z</time>
      </trkpt>
      <trkpt lat="46.25121" lon="-1.14096">
        <ele>0.80000001192093</ele>
        <time>2015-09-07T07:44:37.000Z</time>
      </trkpt>
      <trkpt lat="46.25113" lon="-1.14098">
        <ele>0.60000002384186</ele>
        <time>2015-09-07T07:44:44.000Z</time>
      </trkpt>
      <trkpt lat="46.25102" lon="-1.141">
        <ele>0.60000002384186</ele>
        <time>2015-09-07T07:44:54.000Z</time>
      </trkpt>
      <trkpt lat="46.25089" lon="-1.141">
        <ele>0.60000002384186</ele>
        <time>2015-09-07T07:45:04.000Z</time>
      </trkpt>
      <trkpt lat="46.25074" lon="-1.141">
        <ele>0.60000002384186</ele>
        <time>2015-09-07T07:45:15.000Z</time>
      </trkpt>
      <trkpt lat="46.25064" lon="-1.14098">
        <ele>0.60000002384186</ele>
        <time>2015-09-07T07:45:22.000Z</time>
      </trkpt>
      <trkpt lat="46.25062" lon="-1.14098">
        <ele>0.60000002384186</ele>
        <time>2015-09-07T07:45:24.000Z</time>
      </trkpt>
      <trkpt lat="46.25058" lon="-1.14095">
        <ele>0.80000001192093</ele>
        <time>2015-09-07T07:45:29.000Z</time>
      </trkpt>
      <trkpt lat="46.25047" lon="-1.14094">
        <ele>0.80000001192093</ele>
        <time>2015-09-07T07:45:38.000Z</time>
      </trkpt>
      <trkpt lat="46.25036" lon="-1.14094">
        <ele>0.80000001192093</ele>
        <time>2015-09-07T07:45:47.000Z</time>
      </trkpt>
      <trkpt lat="46.25023" lon="-1.14094">
        <ele>0.80000001192093</ele>
        <time>2015-09-07T07:45:59.000Z</time>
      </trkpt>
      <trkpt lat="46.2502" lon="-1.14094">
        <ele>0.60000002384186</ele>
        <time>2015-09-07T07:46:06.000Z</time>
      </trkpt>
      <trkpt lat="46.25013" lon="-1.14093">
        <ele>0.60000002384186</ele>
        <time>2015-09-07T07:46:14.000Z</time>
      </trkpt>
      <trkpt lat="46.25005" lon="-1.14093">
        <ele>0.60000002384186</ele>
        <time>2015-09-07T07:46:22.000Z</time>
      </trkpt>
      <trkpt lat="46.24996" lon="-1.14094">
        <ele>0.40000000596046</ele>
        <time>2015-09-07T07:46:30.000Z</time>
      </trkpt>
      <trkpt lat="46.24984" lon="-1.14095">
        <ele>0.20000000298023</ele>
        <time>2015-09-07T07:46:40.000Z</time>
      </trkpt>
      <trkpt lat="46.24972" lon="-1.14096">
        <ele>0.40000000596046</ele>
        <time>2015-09-07T07:46:51.000Z</time>
      </trkpt>
      <trkpt lat="46.24961" lon="-1.14098">
        <ele>0.60000002384186</ele>
        <time>2015-09-07T07:47:01.000Z</time>
      </trkpt>
      <trkpt lat="46.24949" lon="-1.141">
        <ele>0.80000001192093</ele>
        <time>2015-09-07T07:47:11.000Z</time>
      </trkpt>
      <trkpt lat="46.24938" lon="-1.14102">
        <ele>1</ele>
        <time>2015-09-07T07:47:21.000Z</time>
      </trkpt>
      <trkpt lat="46.24926" lon="-1.14105">
        <ele>1</ele>
        <time>2015-09-07T07:47:31.000Z</time>
      </trkpt>
      <trkpt lat="46.24915" lon="-1.14108">
        <ele>1</ele>
        <time>2015-09-07T07:47:40.000Z</time>
      </trkpt>
      <trkpt lat="46.24903" lon="-1.14111">
        <ele>1</ele>
        <time>2015-09-07T07:47:50.000Z</time>
      </trkpt>
      <trkpt lat="46.24891" lon="-1.14114">
        <ele>1</ele>
        <time>2015-09-07T07:48:00.000Z</time>
      </trkpt>
      <trkpt lat="46.24878" lon="-1.14118">
        <ele>1</ele>
        <time>2015-09-07T07:48:11.000Z</time>
      </trkpt>
      <trkpt lat="46.24866" lon="-1.14121">
        <ele>1</ele>
        <time>2015-09-07T07:48:21.000Z</time>
      </trkpt>
      <trkpt lat="46.24854" lon="-1.14124">
        <ele>1</ele>
        <time>2015-09-07T07:48:31.000Z</time>
      </trkpt>
      <trkpt lat="46.24838" lon="-1.14128">
        <ele>1</ele>
        <time>2015-09-07T07:48:44.000Z</time>
      </trkpt>
      <trkpt lat="46.24819" lon="-1.14132">
        <ele>1</ele>
        <time>2015-09-07T07:48:58.000Z</time>
      </trkpt>
      <trkpt lat="46.24807" lon="-1.14135">
        <ele>1.2000000476837</ele>
        <time>2015-09-07T07:49:08.000Z</time>
      </trkpt>
      <trkpt lat="46.24793" lon="-1.14138">
        <ele>1</ele>
        <time>2015-09-07T07:49:19.000Z</time>
      </trkpt>
      <trkpt lat="46.24779" lon="-1.14141">
        <ele>1</ele>
        <time>2015-09-07T07:49:30.000Z</time>
      </trkpt>
      <trkpt lat="46.24765" lon="-1.14145">
        <ele>1</ele>
        <time>2015-09-07T07:49:41.000Z</time>
      </trkpt>
      <trkpt lat="46.24751" lon="-1.14149">
        <ele>1</ele>
        <time>2015-09-07T07:49:53.000Z</time>
      </trkpt>
      <trkpt lat="46.24739" lon="-1.14152">
        <ele>1</ele>
        <time>2015-09-07T07:50:03.000Z</time>
      </trkpt>
      <trkpt lat="46.24726" lon="-1.14156">
        <ele>1</ele>
        <time>2015-09-07T07:50:14.000Z</time>
      </trkpt>
      <trkpt lat="46.24716" lon="-1.14159">
        <ele>0.80000001192093</ele>
        <time>2015-09-07T07:50:22.000Z</time>
      </trkpt>
      <trkpt lat="46.24705" lon="-1.14162">
        <ele>0.80000001192093</ele>
        <time>2015-09-07T07:50:31.000Z</time>
      </trkpt>
      <trkpt lat="46.24673" lon="-1.14171">
        <ele>1</ele>
        <time>2015-09-07T07:50:57.000Z</time>
      </trkpt>
      <trkpt lat="46.24658" lon="-1.14175">
        <ele>1.2000000476837</ele>
        <time>2015-09-07T07:51:09.000Z</time>
      </trkpt>
      <trkpt lat="46.24645" lon="-1.14178">
        <ele>1.2000000476837</ele>
        <time>2015-09-07T07:51:20.000Z</time>
      </trkpt>
      <trkpt lat="46.24633" lon="-1.14182">
        <ele>1</ele>
        <time>2015-09-07T07:51:30.000Z</time>
      </trkpt>
      <trkpt lat="46.24622" lon="-1.14185">
        <ele>1</ele>
        <time>2015-09-07T07:51:40.000Z</time>
      </trkpt>
      <trkpt lat="46.24612" lon="-1.14187">
        <ele>1</ele>
        <time>2015-09-07T07:51:48.000Z</time>
      </trkpt>
      <trkpt lat="46.24602" lon="-1.14189">
        <ele>1</ele>
        <time>2015-09-07T07:51:56.000Z</time>
      </trkpt>
      <trkpt lat="46.2459" lon="-1.14193">
        <ele>0.80000001192093</ele>
        <time>2015-09-07T07:52:06.000Z</time>
      </trkpt>
      <trkpt lat="46.24576" lon="-1.14197">
        <ele>0.60000002384186</ele>
        <time>2015-09-07T07:52:18.000Z</time>
      </trkpt>
      <trkpt lat="46.24562" lon="-1.14201">
        <ele>0.40000000596046</ele>
        <time>2015-09-07T07:52:30.000Z</time>
      </trkpt>
      <trkpt lat="46.24552" lon="-1.14204">
        <ele>0.60000002384186</ele>
        <time>2015-09-07T07:52:39.000Z</time>
      </trkpt>
      <trkpt lat="46.2454" lon="-1.14207">
        <ele>0.80000001192093</ele>
        <time>2015-09-07T07:52:48.000Z</time>
      </trkpt>
      <trkpt lat="46.24524" lon="-1.14211">
        <ele>1.2000000476837</ele>
        <time>2015-09-07T07:53:01.000Z</time>
      </trkpt>
      <trkpt lat="46.24511" lon="-1.14215">
        <ele>1.3999999761581</ele>
        <time>2015-09-07T07:53:11.000Z</time>
      </trkpt>
      <trkpt lat="46.24495" lon="-1.1422">
        <ele>1.7999999523163</ele>
        <time>2015-09-07T07:53:24.000Z</time>
      </trkpt>
      <trkpt lat="46.24483" lon="-1.14224">
        <ele>2</ele>
        <time>2015-09-07T07:53:34.000Z</time>
      </trkpt>
      <trkpt lat="46.24465" lon="-1.1423">
        <ele>2.2000000476837</ele>
        <time>2015-09-07T07:53:49.000Z</time>
      </trkpt>
      <trkpt lat="46.2445" lon="-1.14234">
        <ele>2.2000000476837</ele>
        <time>2015-09-07T07:54:01.000Z</time>
      </trkpt>
      <trkpt lat="46.24434" lon="-1.1424">
        <ele>2.4000000953674</ele>
        <time>2015-09-07T07:54:15.000Z</time>
      </trkpt>
      <trkpt lat="46.24423" lon="-1.14243">
        <ele>2.4000000953674</ele>
        <time>2015-09-07T07:54:24.000Z</time>
      </trkpt>
      <trkpt lat="46.24407" lon="-1.14248">
        <ele>2.5999999046326</ele>
        <time>2015-09-07T07:54:37.000Z</time>
      </trkpt>
      <trkpt lat="46.24394" lon="-1.14252">
        <ele>2.5999999046326</ele>
        <time>2015-09-07T07:54:48.000Z</time>
      </trkpt>
      <trkpt lat="46.24379" lon="-1.14257">
        <ele>2.7999999523163</ele>
        <time>2015-09-07T07:55:00.000Z</time>
      </trkpt>
      <trkpt lat="46.24367" lon="-1.14261">
        <ele>3</ele>
        <time>2015-09-07T07:55:10.000Z</time>
      </trkpt>
      <trkpt lat="46.24351" lon="-1.14266">
        <ele>3</ele>
        <time>2015-09-07T07:55:23.000Z</time>
      </trkpt>
      <trkpt lat="46.24333" lon="-1.14272">
        <ele>3</ele>
        <time>2015-09-07T07:55:37.000Z</time>
      </trkpt>
      <trkpt lat="46.24323" lon="-1.14276">
        <ele>2.7999999523163</ele>
        <time>2015-09-07T07:55:46.000Z</time>
      </trkpt>
      <trkpt lat="46.24309" lon="-1.14281">
        <ele>2.7999999523163</ele>
        <time>2015-09-07T07:55:57.000Z</time>
      </trkpt>
      <trkpt lat="46.24296" lon="-1.14284">
        <ele>2.7999999523163</ele>
        <time>2015-09-07T07:56:08.000Z</time>
      </trkpt>
      <trkpt lat="46.24283" lon="-1.14288">
        <ele>2.7999999523163</ele>
        <time>2015-09-07T07:56:19.000Z</time>
      </trkpt>
      <trkpt lat="46.2427" lon="-1.14293">
        <ele>3</ele>
        <time>2015-09-07T07:56:30.000Z</time>
      </trkpt>
      <trkpt lat="46.24255" lon="-1.14298">
        <ele>3</ele>
        <time>2015-09-07T07:56:43.000Z</time>
      </trkpt>
      <trkpt lat="46.24244" lon="-1.14304">
        <ele>3</ele>
        <time>2015-09-07T07:56:54.000Z</time>
      </trkpt>
      <trkpt lat="46.24239" lon="-1.14305">
        <ele>3</ele>
        <time>2015-09-07T07:56:59.000Z</time>
      </trkpt>
      <trkpt lat="46.24229" lon="-1.14312">
        <ele>3</ele>
        <time>2015-09-07T07:57:09.000Z</time>
      </trkpt>
      <trkpt lat="46.2422" lon="-1.1432">
        <ele>2.7999999523163</ele>
        <time>2015-09-07T07:57:18.000Z</time>
      </trkpt>
      <trkpt lat="46.2421" lon="-1.14331">
        <ele>2.7999999523163</ele>
        <time>2015-09-07T07:57:30.000Z</time>
      </trkpt>
      <trkpt lat="46.24205" lon="-1.1434">
        <ele>2.5999999046326</ele>
        <time>2015-09-07T07:57:40.000Z</time>
      </trkpt>
      <trkpt lat="46.24203" lon="-1.14343">
        <ele>2.4000000953674</ele>
        <time>2015-09-07T07:57:46.000Z</time>
      </trkpt>
      <trkpt lat="46.24202" lon="-1.14345">
        <ele>2.4000000953674</ele>
        <time>2015-09-07T07:57:54.000Z</time>
      </trkpt>
      <trkpt lat="46.24202" lon="-1.14353">
        <ele>2.2000000476837</ele>
        <time>2015-09-07T07:58:32.000Z</time>
      </trkpt>
      <trkpt lat="46.24203" lon="-1.14357">
        <ele>2</ele>
        <time>2015-09-07T07:58:37.000Z</time>
      </trkpt>
      <trkpt lat="46.24204" lon="-1.14361">
        <ele>1.7999999523163</ele>
        <time>2015-09-07T07:58:42.000Z</time>
      </trkpt>
      <trkpt lat="46.24196" lon="-1.14391">
        <ele>0.80000001192093</ele>
        <time>2015-09-07T08:03:53.000Z</time>
      </trkpt>
      <trkpt lat="46.24193" lon="-1.14395">
        <ele>0.80000001192093</ele>
        <time>2015-09-07T08:04:10.000Z</time>
      </trkpt>
      <trkpt lat="46.24186" lon="-1.14403">
        <ele>1</ele>
        <time>2015-09-07T08:04:20.000Z</time>
      </trkpt>
      <trkpt lat="46.24175" lon="-1.14414">
        <ele>1</ele>
        <time>2015-09-07T08:04:32.000Z</time>
      </trkpt>
      <trkpt lat="46.24167" lon="-1.14421">
        <ele>1.2000000476837</ele>
        <time>2015-09-07T08:04:42.000Z</time>
      </trkpt>
      <trkpt lat="46.2416" lon="-1.14418">
        <ele>1.3999999761581</ele>
        <time>2015-09-07T08:04:50.000Z</time>
      </trkpt>
      <trkpt lat="46.24151" lon="-1.14414">
        <ele>1.6000000238419</ele>
        <time>2015-09-07T08:05:00.000Z</time>
      </trkpt>
      <trkpt lat="46.24144" lon="-1.14413">
        <ele>1.7999999523163</ele>
        <time>2015-09-07T08:05:07.000Z</time>
      </trkpt>
      <trkpt lat="46.24143" lon="-1.14413">
        <ele>1.7999999523163</ele>
        <time>2015-09-07T08:05:17.000Z</time>
      </trkpt>
      <trkpt lat="46.24138" lon="-1.14414">
        <ele>2.2000000476837</ele>
        <time>2015-09-07T08:05:37.000Z</time>
      </trkpt>
      <trkpt lat="46.24127" lon="-1.14417">
        <ele>2.5999999046326</ele>
        <time>2015-09-07T08:05:45.000Z</time>
      </trkpt>
      <trkpt lat="46.24111" lon="-1.14421">
        <ele>3</ele>
        <time>2015-09-07T08:05:57.000Z</time>
      </trkpt>
      <trkpt lat="46.24093" lon="-1.14417">
        <ele>3.2000000476837</ele>
        <time>2015-09-07T08:06:10.000Z</time>
      </trkpt>
      <trkpt lat="46.24083" lon="-1.1441">
        <ele>3.2000000476837</ele>
        <time>2015-09-07T08:06:18.000Z</time>
      </trkpt>
      <trkpt lat="46.24076" lon="-1.14397">
        <ele>2.7999999523163</ele>
        <time>2015-09-07T08:06:26.000Z</time>
      </trkpt>
      <trkpt lat="46.24074" lon="-1.14379">
        <ele>3</ele>
        <time>2015-09-07T08:06:35.000Z</time>
      </trkpt>
      <trkpt lat="46.24071" lon="-1.14358">
        <ele>3.2000000476837</ele>
        <time>2015-09-07T08:06:45.000Z</time>
      </trkpt>
      <trkpt lat="46.2407" lon="-1.14344">
        <ele>3.4000000953674</ele>
        <time>2015-09-07T08:06:52.000Z</time>
      </trkpt>
      <trkpt lat="46.24069" lon="-1.14328">
        <ele>3.5999999046326</ele>
        <time>2015-09-07T08:07:01.000Z</time>
      </trkpt>
      <trkpt lat="46.24069" lon="-1.14314">
        <ele>3.7999999523163</ele>
        <time>2015-09-07T08:07:09.000Z</time>
      </trkpt>
      <trkpt lat="46.24068" lon="-1.143">
        <ele>3.7999999523163</ele>
        <time>2015-09-07T08:07:17.000Z</time>
      </trkpt>
      <trkpt lat="46.24066" lon="-1.14288">
        <ele>4</ele>
        <time>2015-09-07T08:07:24.000Z</time>
      </trkpt>
      <trkpt lat="46.24065" lon="-1.14275">
        <ele>4</ele>
        <time>2015-09-07T08:07:31.000Z</time>
      </trkpt>
      <trkpt lat="46.24063" lon="-1.14258">
        <ele>4</ele>
        <time>2015-09-07T08:07:41.000Z</time>
      </trkpt>
      <trkpt lat="46.24062" lon="-1.14244">
        <ele>4</ele>
        <time>2015-09-07T08:07:49.000Z</time>
      </trkpt>
      <trkpt lat="46.2406" lon="-1.14232">
        <ele>4</ele>
        <time>2015-09-07T08:07:56.000Z</time>
      </trkpt>
      <trkpt lat="46.2406" lon="-1.14221">
        <ele>4</ele>
        <time>2015-09-07T08:08:02.000Z</time>
      </trkpt>
      <trkpt lat="46.24059" lon="-1.14203">
        <ele>3.7999999523163</ele>
        <time>2015-09-07T08:08:12.000Z</time>
      </trkpt>
      <trkpt lat="46.24057" lon="-1.1419">
        <ele>3.5999999046326</ele>
        <time>2015-09-07T08:08:20.000Z</time>
      </trkpt>
      <trkpt lat="46.24056" lon="-1.14175">
        <ele>3.5999999046326</ele>
        <time>2015-09-07T08:08:28.000Z</time>
      </trkpt>
      <trkpt lat="46.24054" lon="-1.14157">
        <ele>3.4000000953674</ele>
        <time>2015-09-07T08:08:37.000Z</time>
      </trkpt>
      <trkpt lat="46.24052" lon="-1.14132">
        <ele>3.2000000476837</ele>
        <time>2015-09-07T08:08:50.000Z</time>
      </trkpt>
      <trkpt lat="46.2405" lon="-1.14108">
        <ele>2.7999999523163</ele>
        <time>2015-09-07T08:09:02.000Z</time>
      </trkpt>
      <trkpt lat="46.2405" lon="-1.1409">
        <ele>2.5999999046326</ele>
        <time>2015-09-07T08:09:12.000Z</time>
      </trkpt>
      <trkpt lat="46.24049" lon="-1.14069">
        <ele>2.4000000953674</ele>
        <time>2015-09-07T08:09:23.000Z</time>
      </trkpt>
      <trkpt lat="46.24049" lon="-1.14048">
        <ele>2.4000000953674</ele>
        <time>2015-09-07T08:09:34.000Z</time>
      </trkpt>
      <trkpt lat="46.24048" lon="-1.14007">
        <ele>2.4000000953674</ele>
        <time>2015-09-07T08:09:57.000Z</time>
      </trkpt>
      <trkpt lat="46.24047" lon="-1.13987">
        <ele>2.4000000953674</ele>
        <time>2015-09-07T08:10:07.000Z</time>
      </trkpt>
      <trkpt lat="46.24046" lon="-1.13963">
        <ele>2.7999999523163</ele>
        <time>2015-09-07T08:10:21.000Z</time>
      </trkpt>
      <trkpt lat="46.24044" lon="-1.13939">
        <ele>3.4000000953674</ele>
        <time>2015-09-07T08:10:33.000Z</time>
      </trkpt>
      <trkpt lat="46.24042" lon="-1.1392">
        <ele>3.7999999523163</ele>
        <time>2015-09-07T08:10:44.000Z</time>
      </trkpt>
      <trkpt lat="46.24037" lon="-1.13903">
        <ele>4</ele>
        <time>2015-09-07T08:10:54.000Z</time>
      </trkpt>
      <trkpt lat="46.2403" lon="-1.13885">
        <ele>4.1999998092651</ele>
        <time>2015-09-07T08:11:05.000Z</time>
      </trkpt>
      <trkpt lat="46.24025" lon="-1.13871">
        <ele>4.5999999046326</ele>
        <time>2015-09-07T08:11:14.000Z</time>
      </trkpt>
      <trkpt lat="46.24018" lon="-1.13855">
        <ele>5</ele>
        <time>2015-09-07T08:11:25.000Z</time>
      </trkpt>
      <trkpt lat="46.2401" lon="-1.13836">
        <ele>5</ele>
        <time>2015-09-07T08:11:37.000Z</time>
      </trkpt>
      <trkpt lat="46.24005" lon="-1.13825">
        <ele>5.1999998092651</ele>
        <time>2015-09-07T08:11:45.000Z</time>
      </trkpt>
      <trkpt lat="46.23997" lon="-1.1381">
        <ele>5.1999998092651</ele>
        <time>2015-09-07T08:11:55.000Z</time>
      </trkpt>
      <trkpt lat="46.2399" lon="-1.138">
        <ele>5.1999998092651</ele>
        <time>2015-09-07T08:12:04.000Z</time>
      </trkpt>
      <trkpt lat="46.23981" lon="-1.13792">
        <ele>5.1999998092651</ele>
        <time>2015-09-07T08:12:13.000Z</time>
      </trkpt>
      <trkpt lat="46.23974" lon="-1.13789">
        <ele>5.4000000953674</ele>
        <time>2015-09-07T08:12:19.000Z</time>
      </trkpt>
      <trkpt lat="46.23963" lon="-1.13789">
        <ele>5.8000001907349</ele>
        <time>2015-09-07T08:12:28.000Z</time>
      </trkpt>
      <trkpt lat="46.23949" lon="-1.13791">
        <ele>6.4000000953674</ele>
        <time>2015-09-07T08:12:40.000Z</time>
      </trkpt>
      <trkpt lat="46.23934" lon="-1.13793">
        <ele>6.8000001907349</ele>
        <time>2015-09-07T08:12:53.000Z</time>
      </trkpt>
      <trkpt lat="46.23922" lon="-1.13795">
        <ele>7.1999998092651</ele>
        <time>2015-09-07T08:13:02.000Z</time>
      </trkpt>
      <trkpt lat="46.23909" lon="-1.13796">
        <ele>7.5999999046326</ele>
        <time>2015-09-07T08:13:14.000Z</time>
      </trkpt>
      <trkpt lat="46.23897" lon="-1.13797">
        <ele>8</ele>
        <time>2015-09-07T08:13:24.000Z</time>
      </trkpt>
      <trkpt lat="46.23885" lon="-1.13798">
        <ele>7.8000001907349</ele>
        <time>2015-09-07T08:13:32.000Z</time>
      </trkpt>
      <trkpt lat="46.23871" lon="-1.13798">
        <ele>7.8000001907349</ele>
        <time>2015-09-07T08:13:44.000Z</time>
      </trkpt>
      <trkpt lat="46.23859" lon="-1.13798">
        <ele>7.5999999046326</ele>
        <time>2015-09-07T08:13:54.000Z</time>
      </trkpt>
      <trkpt lat="46.23846" lon="-1.13798">
        <ele>7.4000000953674</ele>
        <time>2015-09-07T08:14:04.000Z</time>
      </trkpt>
      <trkpt lat="46.23834" lon="-1.13797">
        <ele>7.1999998092651</ele>
        <time>2015-09-07T08:14:14.000Z</time>
      </trkpt>
      <trkpt lat="46.23824" lon="-1.13796">
        <ele>7.1999998092651</ele>
        <time>2015-09-07T08:14:23.000Z</time>
      </trkpt>
      <trkpt lat="46.23815" lon="-1.13796">
        <ele>7.1999998092651</ele>
        <time>2015-09-07T08:14:31.000Z</time>
      </trkpt>
      <trkpt lat="46.23803" lon="-1.13794">
        <ele>7.4000000953674</ele>
        <time>2015-09-07T08:14:41.000Z</time>
      </trkpt>
      <trkpt lat="46.23789" lon="-1.13791">
        <ele>7.8000001907349</ele>
        <time>2015-09-07T08:14:52.000Z</time>
      </trkpt>
      <trkpt lat="46.23778" lon="-1.13788">
        <ele>8.1999998092651</ele>
        <time>2015-09-07T08:15:01.000Z</time>
      </trkpt>
      <trkpt lat="46.23768" lon="-1.13783">
        <ele>8.3999996185303</ele>
        <time>2015-09-07T08:15:09.000Z</time>
      </trkpt>
      <trkpt lat="46.2376" lon="-1.13777">
        <ele>8.6000003814697</ele>
        <time>2015-09-07T08:15:16.000Z</time>
      </trkpt>
      <trkpt lat="46.23752" lon="-1.13765">
        <ele>9</ele>
        <time>2015-09-07T08:15:24.000Z</time>
      </trkpt>
      <trkpt lat="46.23745" lon="-1.13746">
        <ele>9.3999996185303</ele>
        <time>2015-09-07T08:15:35.000Z</time>
      </trkpt>
      <trkpt lat="46.2374" lon="-1.13719">
        <ele>9.8000001907349</ele>
        <time>2015-09-07T08:15:49.000Z</time>
      </trkpt>
      <trkpt lat="46.23736" lon="-1.13703">
        <ele>9.6000003814697</ele>
        <time>2015-09-07T08:15:58.000Z</time>
      </trkpt>
      <trkpt lat="46.23733" lon="-1.13685">
        <ele>9.3999996185303</ele>
        <time>2015-09-07T08:16:08.000Z</time>
      </trkpt>
      <trkpt lat="46.2373" lon="-1.13661">
        <ele>9.1999998092651</ele>
        <time>2015-09-07T08:16:21.000Z</time>
      </trkpt>
      <trkpt lat="46.23727" lon="-1.13643">
        <ele>9</ele>
        <time>2015-09-07T08:16:31.000Z</time>
      </trkpt>
      <trkpt lat="46.23724" lon="-1.13625">
        <ele>9.1999998092651</ele>
        <time>2015-09-07T08:16:41.000Z</time>
      </trkpt>
      <trkpt lat="46.23723" lon="-1.13622">
        <ele>9.1999998092651</ele>
        <time>2015-09-07T08:16:43.000Z</time>
      </trkpt>
      <trkpt lat="46.2372" lon="-1.13601">
        <ele>9.1999998092651</ele>
        <time>2015-09-07T08:16:55.000Z</time>
      </trkpt>
      <trkpt lat="46.23717" lon="-1.13585">
        <ele>9.1999998092651</ele>
        <time>2015-09-07T08:17:04.000Z</time>
      </trkpt>
      <trkpt lat="46.23713" lon="-1.1357">
        <ele>9.3999996185303</ele>
        <time>2015-09-07T08:17:13.000Z</time>
      </trkpt>
      <trkpt lat="46.2371" lon="-1.13549">
        <ele>9.3999996185303</ele>
        <time>2015-09-07T08:17:25.000Z</time>
      </trkpt>
      <trkpt lat="46.23706" lon="-1.13528">
        <ele>9.6000003814697</ele>
        <time>2015-09-07T08:17:37.000Z</time>
      </trkpt>
      <trkpt lat="46.23702" lon="-1.13507">
        <ele>10</ele>
        <time>2015-09-07T08:17:49.000Z</time>
      </trkpt>
      <trkpt lat="46.23698" lon="-1.13488">
        <ele>10.199999809265</ele>
        <time>2015-09-07T08:18:00.000Z</time>
      </trkpt>
      <trkpt lat="46.23697" lon="-1.13473">
        <ele>10.39999961853</ele>
        <time>2015-09-07T08:18:08.000Z</time>
      </trkpt>
      <trkpt lat="46.23695" lon="-1.13455">
        <ele>10.39999961853</ele>
        <time>2015-09-07T08:18:18.000Z</time>
      </trkpt>
      <trkpt lat="46.23694" lon="-1.13437">
        <ele>10.39999961853</ele>
        <time>2015-09-07T08:18:28.000Z</time>
      </trkpt>
      <trkpt lat="46.23692" lon="-1.13424">
        <ele>10.60000038147</ele>
        <time>2015-09-07T08:18:35.000Z</time>
      </trkpt>
      <trkpt lat="46.2369" lon="-1.13406">
        <ele>10.800000190735</ele>
        <time>2015-09-07T08:18:46.000Z</time>
      </trkpt>
      <trkpt lat="46.23687" lon="-1.13385">
        <ele>11.199999809265</ele>
        <time>2015-09-07T08:18:58.000Z</time>
      </trkpt>
      <trkpt lat="46.23686" lon="-1.13369">
        <ele>11.39999961853</ele>
        <time>2015-09-07T08:19:07.000Z</time>
      </trkpt>
      <trkpt lat="46.23683" lon="-1.13352">
        <ele>11.60000038147</ele>
        <time>2015-09-07T08:19:17.000Z</time>
      </trkpt>
      <trkpt lat="46.2368" lon="-1.13331">
        <ele>12</ele>
        <time>2015-09-07T08:19:29.000Z</time>
      </trkpt>
      <trkpt lat="46.23676" lon="-1.13314">
        <ele>12.199999809265</ele>
        <time>2015-09-07T08:19:39.000Z</time>
      </trkpt>
      <trkpt lat="46.23673" lon="-1.13299">
        <ele>12.60000038147</ele>
        <time>2015-09-07T08:19:48.000Z</time>
      </trkpt>
      <trkpt lat="46.23668" lon="-1.13282">
        <ele>13.199999809265</ele>
        <time>2015-09-07T08:19:59.000Z</time>
      </trkpt>
      <trkpt lat="46.23663" lon="-1.13266">
        <ele>13.60000038147</ele>
        <time>2015-09-07T08:20:09.000Z</time>
      </trkpt>
      <trkpt lat="46.23656" lon="-1.13254">
        <ele>14</ele>
        <time>2015-09-07T08:20:18.000Z</time>
      </trkpt>
      <trkpt lat="46.23648" lon="-1.13244">
        <ele>14.60000038147</ele>
        <time>2015-09-07T08:20:28.000Z</time>
      </trkpt>
      <trkpt lat="46.23635" lon="-1.13237">
        <ele>15.199999809265</ele>
        <time>2015-09-07T08:20:39.000Z</time>
      </trkpt>
      <trkpt lat="46.23626" lon="-1.13233">
        <ele>15.60000038147</ele>
        <time>2015-09-07T08:20:47.000Z</time>
      </trkpt>
      <trkpt lat="46.23616" lon="-1.13231">
        <ele>16</ele>
        <time>2015-09-07T08:20:55.000Z</time>
      </trkpt>
      <trkpt lat="46.23605" lon="-1.13228">
        <ele>16.39999961853</ele>
        <time>2015-09-07T08:21:05.000Z</time>
      </trkpt>
      <trkpt lat="46.23591" lon="-1.13225">
        <ele>17</ele>
        <time>2015-09-07T08:21:17.000Z</time>
      </trkpt>
      <trkpt lat="46.23581" lon="-1.13224">
        <ele>17.39999961853</ele>
        <time>2015-09-07T08:21:26.000Z</time>
      </trkpt>
      <trkpt lat="46.2357" lon="-1.13223">
        <ele>17.799999237061</ele>
        <time>2015-09-07T08:21:36.000Z</time>
      </trkpt>
      <trkpt lat="46.23548" lon="-1.13223">
        <ele>18.200000762939</ele>
        <time>2015-09-07T08:21:55.000Z</time>
      </trkpt>
      <trkpt lat="46.23537" lon="-1.13224">
        <ele>18.39999961853</ele>
        <time>2015-09-07T08:22:03.000Z</time>
      </trkpt>
      <trkpt lat="46.23529" lon="-1.13225">
        <ele>18.39999961853</ele>
        <time>2015-09-07T08:22:10.000Z</time>
      </trkpt>
      <trkpt lat="46.23519" lon="-1.13225">
        <ele>18.60000038147</ele>
        <time>2015-09-07T08:22:19.000Z</time>
      </trkpt>
      <trkpt lat="46.23509" lon="-1.13224">
        <ele>18.799999237061</ele>
        <time>2015-09-07T08:22:27.000Z</time>
      </trkpt>
      <trkpt lat="46.23501" lon="-1.13221">
        <ele>18.799999237061</ele>
        <time>2015-09-07T08:22:34.000Z</time>
      </trkpt>
      <trkpt lat="46.23483" lon="-1.13211">
        <ele>19.60000038147</ele>
        <time>2015-09-07T08:22:50.000Z</time>
      </trkpt>
      <trkpt lat="46.23473" lon="-1.13204">
        <ele>20.200000762939</ele>
        <time>2015-09-07T08:22:59.000Z</time>
      </trkpt>
      <trkpt lat="46.23464" lon="-1.132">
        <ele>20.60000038147</ele>
        <time>2015-09-07T08:23:07.000Z</time>
      </trkpt>
      <trkpt lat="46.23453" lon="-1.13196">
        <ele>20.799999237061</ele>
        <time>2015-09-07T08:23:16.000Z</time>
      </trkpt>
      <trkpt lat="46.23444" lon="-1.13194">
        <ele>21</ele>
        <time>2015-09-07T08:23:23.000Z</time>
      </trkpt>
      <trkpt lat="46.23433" lon="-1.13191">
        <ele>21.200000762939</ele>
        <time>2015-09-07T08:23:32.000Z</time>
      </trkpt>
      <trkpt lat="46.2342" lon="-1.13182">
        <ele>21.200000762939</ele>
        <time>2015-09-07T08:23:42.000Z</time>
      </trkpt>
      <trkpt lat="46.2341" lon="-1.13165">
        <ele>21</ele>
        <time>2015-09-07T08:23:53.000Z</time>
      </trkpt>
      <trkpt lat="46.23405" lon="-1.1315">
        <ele>21.200000762939</ele>
        <time>2015-09-07T08:24:01.000Z</time>
      </trkpt>
      <trkpt lat="46.23401" lon="-1.13134">
        <ele>21.200000762939</ele>
        <time>2015-09-07T08:24:10.000Z</time>
      </trkpt>
      <trkpt lat="46.23395" lon="-1.13121">
        <ele>21.200000762939</ele>
        <time>2015-09-07T08:24:18.000Z</time>
      </trkpt>
      <trkpt lat="46.23392" lon="-1.13105">
        <ele>21.39999961853</ele>
        <time>2015-09-07T08:24:27.000Z</time>
      </trkpt>
      <trkpt lat="46.23388" lon="-1.13089">
        <ele>21.60000038147</ele>
        <time>2015-09-07T08:24:36.000Z</time>
      </trkpt>
      <trkpt lat="46.23384" lon="-1.13071">
        <ele>21.799999237061</ele>
        <time>2015-09-07T08:24:46.000Z</time>
      </trkpt>
      <trkpt lat="46.23381" lon="-1.13057">
        <ele>22</ele>
        <time>2015-09-07T08:24:55.000Z</time>
      </trkpt>
      <trkpt lat="46.23379" lon="-1.13049">
        <ele>22</ele>
        <time>2015-09-07T08:25:02.000Z</time>
      </trkpt>
      <trkpt lat="46.23378" lon="-1.13043">
        <ele>22</ele>
        <time>2015-09-07T08:25:39.000Z</time>
      </trkpt>
      <trkpt lat="46.23376" lon="-1.13036">
        <ele>22</ele>
        <time>2015-09-07T08:25:46.000Z</time>
      </trkpt>
      <trkpt lat="46.23375" lon="-1.13022">
        <ele>22</ele>
        <time>2015-09-07T08:25:55.000Z</time>
      </trkpt>
      <trkpt lat="46.23375" lon="-1.13021">
        <ele>22</ele>
        <time>2015-09-07T08:25:56.000Z</time>
      </trkpt>
      <trkpt lat="46.23372" lon="-1.13006">
        <ele>22</ele>
        <time>2015-09-07T08:26:06.000Z</time>
      </trkpt>
      <trkpt lat="46.2337" lon="-1.12992">
        <ele>22.200000762939</ele>
        <time>2015-09-07T08:26:15.000Z</time>
      </trkpt>
      <trkpt lat="46.23366" lon="-1.12978">
        <ele>22.39999961853</ele>
        <time>2015-09-07T08:26:24.000Z</time>
      </trkpt>
      <trkpt lat="46.23367" lon="-1.12964">
        <ele>22.60000038147</ele>
        <time>2015-09-07T08:26:33.000Z</time>
      </trkpt>
      <trkpt lat="46.23374" lon="-1.12957">
        <ele>22.39999961853</ele>
        <time>2015-09-07T08:26:41.000Z</time>
      </trkpt>
      <trkpt lat="46.23383" lon="-1.12952">
        <ele>22.39999961853</ele>
        <time>2015-09-07T08:26:49.000Z</time>
      </trkpt>
      <trkpt lat="46.2339" lon="-1.12946">
        <ele>22.39999961853</ele>
        <time>2015-09-07T08:26:57.000Z</time>
      </trkpt>
      <trkpt lat="46.234" lon="-1.12939">
        <ele>22.60000038147</ele>
        <time>2015-09-07T08:27:07.000Z</time>
      </trkpt>
      <trkpt lat="46.2341" lon="-1.12931">
        <ele>22.799999237061</ele>
        <time>2015-09-07T08:27:16.000Z</time>
      </trkpt>
      <trkpt lat="46.23417" lon="-1.12925">
        <ele>22.799999237061</ele>
        <time>2015-09-07T08:27:23.000Z</time>
      </trkpt>
      <trkpt lat="46.23424" lon="-1.12917">
        <ele>23</ele>
        <time>2015-09-07T08:27:30.000Z</time>
      </trkpt>
      <trkpt lat="46.23431" lon="-1.12911">
        <ele>23.200000762939</ele>
        <time>2015-09-07T08:27:38.000Z</time>
      </trkpt>
      <trkpt lat="46.23442" lon="-1.12905">
        <ele>23.39999961853</ele>
        <time>2015-09-07T08:27:48.000Z</time>
      </trkpt>
      <trkpt lat="46.23453" lon="-1.12899">
        <ele>23.60000038147</ele>
        <time>2015-09-07T08:27:58.000Z</time>
      </trkpt>
      <trkpt lat="46.23463" lon="-1.12892">
        <ele>23.799999237061</ele>
        <time>2015-09-07T08:28:08.000Z</time>
      </trkpt>
      <trkpt lat="46.23472" lon="-1.12886">
        <ele>23.799999237061</ele>
        <time>2015-09-07T08:28:17.000Z</time>
      </trkpt>
      <trkpt lat="46.23482" lon="-1.12879">
        <ele>23.799999237061</ele>
        <time>2015-09-07T08:28:26.000Z</time>
      </trkpt>
      <trkpt lat="46.2349" lon="-1.12874">
        <ele>23.60000038147</ele>
        <time>2015-09-07T08:28:34.000Z</time>
      </trkpt>
      <trkpt lat="46.23502" lon="-1.12866">
        <ele>23.39999961853</ele>
        <time>2015-09-07T08:28:45.000Z</time>
      </trkpt>
      <trkpt lat="46.23517" lon="-1.12855">
        <ele>23</ele>
        <time>2015-09-07T08:28:58.000Z</time>
      </trkpt>
      <trkpt lat="46.23525" lon="-1.12849">
        <ele>22.799999237061</ele>
        <time>2015-09-07T08:29:07.000Z</time>
      </trkpt>
      <trkpt lat="46.23534" lon="-1.12844">
        <ele>22.60000038147</ele>
        <time>2015-09-07T08:29:15.000Z</time>
      </trkpt>
      <trkpt lat="46.23546" lon="-1.12835">
        <ele>22.39999961853</ele>
        <time>2015-09-07T08:29:26.000Z</time>
      </trkpt>
      <trkpt lat="46.23561" lon="-1.12825">
        <ele>22</ele>
        <time>2015-09-07T08:29:39.000Z</time>
      </trkpt>
      <trkpt lat="46.23576" lon="-1.12815">
        <ele>21.799999237061</ele>
        <time>2015-09-07T08:29:52.000Z</time>
      </trkpt>
      <trkpt lat="46.23589" lon="-1.12805">
        <ele>21.799999237061</ele>
        <time>2015-09-07T08:30:04.000Z</time>
      </trkpt>
      <trkpt lat="46.23602" lon="-1.12795">
        <ele>21.799999237061</ele>
        <time>2015-09-07T08:30:16.000Z</time>
      </trkpt>
      <trkpt lat="46.23618" lon="-1.12785">
        <ele>22</ele>
        <time>2015-09-07T08:30:30.000Z</time>
      </trkpt>
      <trkpt lat="46.23632" lon="-1.12775">
        <ele>22</ele>
        <time>2015-09-07T08:30:42.000Z</time>
      </trkpt>
      <trkpt lat="46.23649" lon="-1.12764">
        <ele>22</ele>
        <time>2015-09-07T08:30:57.000Z</time>
      </trkpt>
      <trkpt lat="46.23665" lon="-1.12752">
        <ele>21.39999961853</ele>
        <time>2015-09-07T08:31:12.000Z</time>
      </trkpt>
      <trkpt lat="46.23679" lon="-1.12742">
        <ele>21</ele>
        <time>2015-09-07T08:31:24.000Z</time>
      </trkpt>
      <trkpt lat="46.23691" lon="-1.12733">
        <ele>20.60000038147</ele>
        <time>2015-09-07T08:31:34.000Z</time>
      </trkpt>
      <trkpt lat="46.23705" lon="-1.12723">
        <ele>20.200000762939</ele>
        <time>2015-09-07T08:31:47.000Z</time>
      </trkpt>
      <trkpt lat="46.23723" lon="-1.12714">
        <ele>19.60000038147</ele>
        <time>2015-09-07T08:32:02.000Z</time>
      </trkpt>
      <trkpt lat="46.23738" lon="-1.1271">
        <ele>19</ele>
        <time>2015-09-07T08:32:14.000Z</time>
      </trkpt>
      <trkpt lat="46.23753" lon="-1.12707">
        <ele>18.60000038147</ele>
        <time>2015-09-07T08:32:26.000Z</time>
      </trkpt>
      <trkpt lat="46.23767" lon="-1.12704">
        <ele>18.200000762939</ele>
        <time>2015-09-07T08:32:37.000Z</time>
      </trkpt>
      <trkpt lat="46.23783" lon="-1.12699">
        <ele>17.799999237061</ele>
        <time>2015-09-07T08:32:50.000Z</time>
      </trkpt>
      <trkpt lat="46.23798" lon="-1.12694">
        <ele>17.39999961853</ele>
        <time>2015-09-07T08:33:02.000Z</time>
      </trkpt>
      <trkpt lat="46.23814" lon="-1.12688">
        <ele>16.799999237061</ele>
        <time>2015-09-07T08:33:16.000Z</time>
      </trkpt>
      <trkpt lat="46.23829" lon="-1.12682">
        <ele>16.60000038147</ele>
        <time>2015-09-07T08:33:29.000Z</time>
      </trkpt>
      <trkpt lat="46.23842" lon="-1.12676">
        <ele>16.60000038147</ele>
        <time>2015-09-07T08:33:40.000Z</time>
      </trkpt>
      <trkpt lat="46.23855" lon="-1.12671">
        <ele>16.39999961853</ele>
        <time>2015-09-07T08:33:51.000Z</time>
      </trkpt>
      <trkpt lat="46.23868" lon="-1.12666">
        <ele>16.200000762939</ele>
        <time>2015-09-07T08:34:01.000Z</time>
      </trkpt>
      <trkpt lat="46.23881" lon="-1.12661">
        <ele>16</ele>
        <time>2015-09-07T08:34:12.000Z</time>
      </trkpt>
      <trkpt lat="46.23897" lon="-1.12654">
        <ele>15.800000190735</ele>
        <time>2015-09-07T08:34:25.000Z</time>
      </trkpt>
      <trkpt lat="46.23922" lon="-1.12644">
        <ele>15.60000038147</ele>
        <time>2015-09-07T08:34:45.000Z</time>
      </trkpt>
      <trkpt lat="46.23934" lon="-1.1264">
        <ele>15.60000038147</ele>
        <time>2015-09-07T08:34:55.000Z</time>
      </trkpt>
      <trkpt lat="46.23947" lon="-1.12635">
        <ele>15.800000190735</ele>
        <time>2015-09-07T08:35:06.000Z</time>
      </trkpt>
      <trkpt lat="46.23963" lon="-1.12628">
        <ele>15.800000190735</ele>
        <time>2015-09-07T08:35:19.000Z</time>
      </trkpt>
      <trkpt lat="46.23975" lon="-1.12624">
        <ele>15.800000190735</ele>
        <time>2015-09-07T08:35:29.000Z</time>
      </trkpt>
      <trkpt lat="46.23985" lon="-1.1262">
        <ele>15.800000190735</ele>
        <time>2015-09-07T08:35:37.000Z</time>
      </trkpt>
      <trkpt lat="46.24" lon="-1.12613">
        <ele>15.60000038147</ele>
        <time>2015-09-07T08:35:50.000Z</time>
      </trkpt>
      <trkpt lat="46.24011" lon="-1.12609">
        <ele>15.39999961853</ele>
        <time>2015-09-07T08:35:59.000Z</time>
      </trkpt>
      <trkpt lat="46.24024" lon="-1.12604">
        <ele>15.39999961853</ele>
        <time>2015-09-07T08:36:09.000Z</time>
      </trkpt>
      <trkpt lat="46.24038" lon="-1.12598">
        <ele>15</ele>
        <time>2015-09-07T08:36:21.000Z</time>
      </trkpt>
      <trkpt lat="46.24049" lon="-1.12594">
        <ele>14.800000190735</ele>
        <time>2015-09-07T08:36:31.000Z</time>
      </trkpt>
      <trkpt lat="46.24065" lon="-1.12587">
        <ele>14.60000038147</ele>
        <time>2015-09-07T08:36:43.000Z</time>
      </trkpt>
      <trkpt lat="46.24079" lon="-1.12582">
        <ele>14.60000038147</ele>
        <time>2015-09-07T08:36:55.000Z</time>
      </trkpt>
      <trkpt lat="46.24097" lon="-1.12574">
        <ele>14.39999961853</ele>
        <time>2015-09-07T08:37:09.000Z</time>
      </trkpt>
      <trkpt lat="46.24112" lon="-1.12568">
        <ele>14.39999961853</ele>
        <time>2015-09-07T08:37:21.000Z</time>
      </trkpt>
      <trkpt lat="46.24129" lon="-1.12562">
        <ele>14.39999961853</ele>
        <time>2015-09-07T08:37:34.000Z</time>
      </trkpt>
      <trkpt lat="46.24144" lon="-1.12555">
        <ele>14.199999809265</ele>
        <time>2015-09-07T08:37:46.000Z</time>
      </trkpt>
      <trkpt lat="46.24151" lon="-1.12542">
        <ele>14.199999809265</ele>
        <time>2015-09-07T08:37:57.000Z</time>
      </trkpt>
      <trkpt lat="46.24147" lon="-1.1252">
        <ele>15</ele>
        <time>2015-09-07T08:38:10.000Z</time>
      </trkpt>
      <trkpt lat="46.24143" lon="-1.12498">
        <ele>15.60000038147</ele>
        <time>2015-09-07T08:38:23.000Z</time>
      </trkpt>
      <trkpt lat="46.24139" lon="-1.12476">
        <ele>16.200000762939</ele>
        <time>2015-09-07T08:38:36.000Z</time>
      </trkpt>
      <trkpt lat="46.24138" lon="-1.12473">
        <ele>16.39999961853</ele>
        <time>2015-09-07T08:38:37.000Z</time>
      </trkpt>
      <trkpt lat="46.2414" lon="-1.12462">
        <ele>16.60000038147</ele>
        <time>2015-09-07T08:38:44.000Z</time>
      </trkpt>
      <trkpt lat="46.24157" lon="-1.12457">
        <ele>16.200000762939</ele>
        <time>2015-09-07T08:38:57.000Z</time>
      </trkpt>
      <trkpt lat="46.24173" lon="-1.12451">
        <ele>15.60000038147</ele>
        <time>2015-09-07T08:39:11.000Z</time>
      </trkpt>
      <trkpt lat="46.2419" lon="-1.12445">
        <ele>15.199999809265</ele>
        <time>2015-09-07T08:39:25.000Z</time>
      </trkpt>
      <trkpt lat="46.24222" lon="-1.12435">
        <ele>14.199999809265</ele>
        <time>2015-09-07T08:39:51.000Z</time>
      </trkpt>
      <trkpt lat="46.24235" lon="-1.1243">
        <ele>14</ele>
        <time>2015-09-07T08:40:02.000Z</time>
      </trkpt>
      <trkpt lat="46.24248" lon="-1.12427">
        <ele>13.800000190735</ele>
        <time>2015-09-07T08:40:12.000Z</time>
      </trkpt>
      <trkpt lat="46.24264" lon="-1.12422">
        <ele>13.39999961853</ele>
        <time>2015-09-07T08:40:25.000Z</time>
      </trkpt>
      <trkpt lat="46.24282" lon="-1.12416">
        <ele>13.199999809265</ele>
        <time>2015-09-07T08:40:39.000Z</time>
      </trkpt>
      <trkpt lat="46.24299" lon="-1.12411">
        <ele>13</ele>
        <time>2015-09-07T08:40:52.000Z</time>
      </trkpt>
      <trkpt lat="46.24312" lon="-1.12407">
        <ele>13</ele>
        <time>2015-09-07T08:41:03.000Z</time>
      </trkpt>
      <trkpt lat="46.24317" lon="-1.12403">
        <ele>13</ele>
        <time>2015-09-07T08:41:08.000Z</time>
      </trkpt>
      <trkpt lat="46.24315" lon="-1.12383">
        <ele>13.199999809265</ele>
        <time>2015-09-07T08:41:19.000Z</time>
      </trkpt>
      <trkpt lat="46.24312" lon="-1.1236">
        <ele>13.39999961853</ele>
        <time>2015-09-07T08:41:33.000Z</time>
      </trkpt>
      <trkpt lat="46.24308" lon="-1.12335">
        <ele>13.800000190735</ele>
        <time>2015-09-07T08:41:47.000Z</time>
      </trkpt>
      <trkpt lat="46.24306" lon="-1.12319">
        <ele>14</ele>
        <time>2015-09-07T08:41:56.000Z</time>
      </trkpt>
      <trkpt lat="46.24309" lon="-1.12313">
        <ele>14</ele>
        <time>2015-09-07T08:42:00.000Z</time>
      </trkpt>
      <trkpt lat="46.24324" lon="-1.12306">
        <ele>14.199999809265</ele>
        <time>2015-09-07T08:42:13.000Z</time>
      </trkpt>
      <trkpt lat="46.24341" lon="-1.12299">
        <ele>14.60000038147</ele>
        <time>2015-09-07T08:42:27.000Z</time>
      </trkpt>
      <trkpt lat="46.24353" lon="-1.12295">
        <ele>14.800000190735</ele>
        <time>2015-09-07T08:42:37.000Z</time>
      </trkpt>
      <trkpt lat="46.2437" lon="-1.12287">
        <ele>15.199999809265</ele>
        <time>2015-09-07T08:42:51.000Z</time>
      </trkpt>
      <trkpt lat="46.24383" lon="-1.12283">
        <ele>15.39999961853</ele>
        <time>2015-09-07T08:43:01.000Z</time>
      </trkpt>
      <trkpt lat="46.24399" lon="-1.12276">
        <ele>15.60000038147</ele>
        <time>2015-09-07T08:43:15.000Z</time>
      </trkpt>
      <trkpt lat="46.24414" lon="-1.1227">
        <ele>15.800000190735</ele>
        <time>2015-09-07T08:43:27.000Z</time>
      </trkpt>
      <trkpt lat="46.2443" lon="-1.12263">
        <ele>15.800000190735</ele>
        <time>2015-09-07T08:43:41.000Z</time>
      </trkpt>
      <trkpt lat="46.24434" lon="-1.12261">
        <ele>15.800000190735</ele>
        <time>2015-09-07T08:43:49.000Z</time>
      </trkpt>
      <trkpt lat="46.24441" lon="-1.12258">
        <ele>16</ele>
        <time>2015-09-07T08:44:30.000Z</time>
      </trkpt>
      <trkpt lat="46.24443" lon="-1.12258">
        <ele>16</ele>
        <time>2015-09-07T08:44:36.000Z</time>
      </trkpt>
      <trkpt lat="46.24446" lon="-1.12256">
        <ele>16</ele>
        <time>2015-09-07T08:44:39.000Z</time>
      </trkpt>
      <trkpt lat="46.24451" lon="-1.12247">
        <ele>15.800000190735</ele>
        <time>2015-09-07T08:44:47.000Z</time>
      </trkpt>
      <trkpt lat="46.2445" lon="-1.12241">
        <ele>15.800000190735</ele>
        <time>2015-09-07T08:44:54.000Z</time>
      </trkpt>
      <trkpt lat="46.24449" lon="-1.12232">
        <ele>15.800000190735</ele>
        <time>2015-09-07T08:45:01.000Z</time>
      </trkpt>
      <trkpt lat="46.24448" lon="-1.12213">
        <ele>16</ele>
        <time>2015-09-07T08:45:12.000Z</time>
      </trkpt>
      <trkpt lat="46.24447" lon="-1.12195">
        <ele>16.39999961853</ele>
        <time>2015-09-07T08:45:22.000Z</time>
      </trkpt>
      <trkpt lat="46.24447" lon="-1.12176">
        <ele>16.799999237061</ele>
        <time>2015-09-07T08:45:33.000Z</time>
      </trkpt>
      <trkpt lat="46.24447" lon="-1.12156">
        <ele>16.799999237061</ele>
        <time>2015-09-07T08:45:44.000Z</time>
      </trkpt>
      <trkpt lat="46.24448" lon="-1.12136">
        <ele>16.799999237061</ele>
        <time>2015-09-07T08:45:55.000Z</time>
      </trkpt>
      <trkpt lat="46.24449" lon="-1.12117">
        <ele>17</ele>
        <time>2015-09-07T08:46:06.000Z</time>
      </trkpt>
      <trkpt lat="46.2445" lon="-1.12101">
        <ele>17</ele>
        <time>2015-09-07T08:46:15.000Z</time>
      </trkpt>
      <trkpt lat="46.24451" lon="-1.12083">
        <ele>17.200000762939</ele>
        <time>2015-09-07T08:46:25.000Z</time>
      </trkpt>
      <trkpt lat="46.24452" lon="-1.12065">
        <ele>17.799999237061</ele>
        <time>2015-09-07T08:46:35.000Z</time>
      </trkpt>
      <trkpt lat="46.24453" lon="-1.12043">
        <ele>18</ele>
        <time>2015-09-07T08:46:47.000Z</time>
      </trkpt>
      <trkpt lat="46.24455" lon="-1.12021">
        <ele>18</ele>
        <time>2015-09-07T08:46:59.000Z</time>
      </trkpt>
      <trkpt lat="46.24459" lon="-1.12005">
        <ele>18</ele>
        <time>2015-09-07T08:47:09.000Z</time>
      </trkpt>
      <trkpt lat="46.24463" lon="-1.11995">
        <ele>18</ele>
        <time>2015-09-07T08:47:16.000Z</time>
      </trkpt>
      <trkpt lat="46.24464" lon="-1.11992">
        <ele>18</ele>
        <time>2015-09-07T08:47:18.000Z</time>
      </trkpt>
      <trkpt lat="46.24461" lon="-1.11991">
        <ele>18</ele>
        <time>2015-09-07T08:47:24.000Z</time>
      </trkpt>
      <trkpt lat="46.24454" lon="-1.1199">
        <ele>17.799999237061</ele>
        <time>2015-09-07T08:47:33.000Z</time>
      </trkpt>
      <trkpt lat="46.2445" lon="-1.11982">
        <ele>17.799999237061</ele>
        <time>2015-09-07T08:47:41.000Z</time>
      </trkpt>
      <trkpt lat="46.24447" lon="-1.1197">
        <ele>17.39999961853</ele>
        <time>2015-09-07T08:47:49.000Z</time>
      </trkpt>
      <trkpt lat="46.24443" lon="-1.11953">
        <ele>17</ele>
        <time>2015-09-07T08:47:59.000Z</time>
      </trkpt>
      <trkpt lat="46.24439" lon="-1.11939">
        <ele>16.60000038147</ele>
        <time>2015-09-07T08:48:08.000Z</time>
      </trkpt>
      <trkpt lat="46.24436" lon="-1.11927">
        <ele>16.60000038147</ele>
        <time>2015-09-07T08:48:16.000Z</time>
      </trkpt>
      <trkpt lat="46.24434" lon="-1.11915">
        <ele>16.60000038147</ele>
        <time>2015-09-07T08:48:24.000Z</time>
      </trkpt>
      <trkpt lat="46.24429" lon="-1.11904">
        <ele>16.60000038147</ele>
        <time>2015-09-07T08:48:32.000Z</time>
      </trkpt>
      <trkpt lat="46.24424" lon="-1.1189">
        <ele>16.60000038147</ele>
        <time>2015-09-07T08:48:42.000Z</time>
      </trkpt>
      <trkpt lat="46.24419" lon="-1.11876">
        <ele>16.799999237061</ele>
        <time>2015-09-07T08:48:51.000Z</time>
      </trkpt>
      <trkpt lat="46.24415" lon="-1.1186">
        <ele>16.799999237061</ele>
        <time>2015-09-07T08:49:01.000Z</time>
      </trkpt>
      <trkpt lat="46.2441" lon="-1.11842">
        <ele>16.799999237061</ele>
        <time>2015-09-07T08:49:12.000Z</time>
      </trkpt>
      <trkpt lat="46.24406" lon="-1.11831">
        <ele>16.799999237061</ele>
        <time>2015-09-07T08:49:19.000Z</time>
      </trkpt>
      <trkpt lat="46.24401" lon="-1.11817">
        <ele>17</ele>
        <time>2015-09-07T08:49:29.000Z</time>
      </trkpt>
      <trkpt lat="46.24394" lon="-1.11802">
        <ele>16.799999237061</ele>
        <time>2015-09-07T08:49:39.000Z</time>
      </trkpt>
      <trkpt lat="46.24386" lon="-1.11785">
        <ele>16.200000762939</ele>
        <time>2015-09-07T08:49:51.000Z</time>
      </trkpt>
      <trkpt lat="46.24389" lon="-1.11774">
        <ele>16</ele>
        <time>2015-09-07T08:49:59.000Z</time>
      </trkpt>
      <trkpt lat="46.244" lon="-1.11761">
        <ele>15.800000190735</ele>
        <time>2015-09-07T08:50:11.000Z</time>
      </trkpt>
      <trkpt lat="46.24408" lon="-1.1175">
        <ele>15.60000038147</ele>
        <time>2015-09-07T08:50:21.000Z</time>
      </trkpt>
      <trkpt lat="46.24416" lon="-1.11739">
        <ele>15.199999809265</ele>
        <time>2015-09-07T08:50:30.000Z</time>
      </trkpt>
      <trkpt lat="46.24426" lon="-1.11724">
        <ele>15</ele>
        <time>2015-09-07T08:50:42.000Z</time>
      </trkpt>
      <trkpt lat="46.24434" lon="-1.11711">
        <ele>14.800000190735</ele>
        <time>2015-09-07T08:50:52.000Z</time>
      </trkpt>
      <trkpt lat="46.24442" lon="-1.11699">
        <ele>14.60000038147</ele>
        <time>2015-09-07T08:51:01.000Z</time>
      </trkpt>
      <trkpt lat="46.24451" lon="-1.11685">
        <ele>14.39999961853</ele>
        <time>2015-09-07T08:51:12.000Z</time>
      </trkpt>
      <trkpt lat="46.24458" lon="-1.11672">
        <ele>14.39999961853</ele>
        <time>2015-09-07T08:51:21.000Z</time>
      </trkpt>
      <trkpt lat="46.24466" lon="-1.11657">
        <ele>14.199999809265</ele>
        <time>2015-09-07T08:51:32.000Z</time>
      </trkpt>
      <trkpt lat="46.24475" lon="-1.11641">
        <ele>13.800000190735</ele>
        <time>2015-09-07T08:51:44.000Z</time>
      </trkpt>
      <trkpt lat="46.24483" lon="-1.11625">
        <ele>13.800000190735</ele>
        <time>2015-09-07T08:51:55.000Z</time>
      </trkpt>
      <trkpt lat="46.24492" lon="-1.11609">
        <ele>13.60000038147</ele>
        <time>2015-09-07T08:52:06.000Z</time>
      </trkpt>
      <trkpt lat="46.24504" lon="-1.11588">
        <ele>13.60000038147</ele>
        <time>2015-09-07T08:52:20.000Z</time>
      </trkpt>
      <trkpt lat="46.24516" lon="-1.11569">
        <ele>13.60000038147</ele>
        <time>2015-09-07T08:52:33.000Z</time>
      </trkpt>
      <trkpt lat="46.24527" lon="-1.11554">
        <ele>13.60000038147</ele>
        <time>2015-09-07T08:52:45.000Z</time>
      </trkpt>
      <trkpt lat="46.24535" lon="-1.11543">
        <ele>13.60000038147</ele>
        <time>2015-09-07T08:52:54.000Z</time>
      </trkpt>
      <trkpt lat="46.24545" lon="-1.1153">
        <ele>13.60000038147</ele>
        <time>2015-09-07T08:53:05.000Z</time>
      </trkpt>
      <trkpt lat="46.24553" lon="-1.11519">
        <ele>13.60000038147</ele>
        <time>2015-09-07T08:53:14.000Z</time>
      </trkpt>
      <trkpt lat="46.24562" lon="-1.11506">
        <ele>13.800000190735</ele>
        <time>2015-09-07T08:53:25.000Z</time>
      </trkpt>
      <trkpt lat="46.24573" lon="-1.11494">
        <ele>13.60000038147</ele>
        <time>2015-09-07T08:53:36.000Z</time>
      </trkpt>
      <trkpt lat="46.24587" lon="-1.1147">
        <ele>13.60000038147</ele>
        <time>2015-09-07T08:53:54.000Z</time>
      </trkpt>
      <trkpt lat="46.24594" lon="-1.11459">
        <ele>13.60000038147</ele>
        <time>2015-09-07T08:54:03.000Z</time>
      </trkpt>
      <trkpt lat="46.246" lon="-1.11448">
        <ele>13.60000038147</ele>
        <time>2015-09-07T08:54:11.000Z</time>
      </trkpt>
      <trkpt lat="46.24605" lon="-1.11439">
        <ele>13.60000038147</ele>
        <time>2015-09-07T08:54:18.000Z</time>
      </trkpt>
      <trkpt lat="46.24611" lon="-1.11428">
        <ele>13.60000038147</ele>
        <time>2015-09-07T08:54:27.000Z</time>
      </trkpt>
      <trkpt lat="46.24623" lon="-1.11404">
        <ele>13.60000038147</ele>
        <time>2015-09-07T08:54:44.000Z</time>
      </trkpt>
      <trkpt lat="46.24628" lon="-1.11387">
        <ele>13.39999961853</ele>
        <time>2015-09-07T08:54:55.000Z</time>
      </trkpt>
      <trkpt lat="46.2463" lon="-1.11368">
        <ele>13.39999961853</ele>
        <time>2015-09-07T08:55:06.000Z</time>
      </trkpt>
      <trkpt lat="46.24631" lon="-1.11351">
        <ele>13.199999809265</ele>
        <time>2015-09-07T08:55:16.000Z</time>
      </trkpt>
      <trkpt lat="46.24632" lon="-1.11334">
        <ele>13</ele>
        <time>2015-09-07T08:55:26.000Z</time>
      </trkpt>
      <trkpt lat="46.24638" lon="-1.11323">
        <ele>13</ele>
        <time>2015-09-07T08:55:34.000Z</time>
      </trkpt>
      <trkpt lat="46.24639" lon="-1.11322">
        <ele>13</ele>
        <time>2015-09-07T08:55:35.000Z</time>
      </trkpt>
      <trkpt lat="46.2465" lon="-1.11302">
        <ele>13</ele>
        <time>2015-09-07T08:55:49.000Z</time>
      </trkpt>
      <trkpt lat="46.24658" lon="-1.11295">
        <ele>12.800000190735</ele>
        <time>2015-09-07T08:55:57.000Z</time>
      </trkpt>
      <trkpt lat="46.24669" lon="-1.1129">
        <ele>12.800000190735</ele>
        <time>2015-09-07T08:56:07.000Z</time>
      </trkpt>
      <trkpt lat="46.24679" lon="-1.1129">
        <ele>13</ele>
        <time>2015-09-07T08:56:16.000Z</time>
      </trkpt>
      <trkpt lat="46.24689" lon="-1.11289">
        <ele>13</ele>
        <time>2015-09-07T08:56:25.000Z</time>
      </trkpt>
      <trkpt lat="46.247" lon="-1.11284">
        <ele>13</ele>
        <time>2015-09-07T08:56:34.000Z</time>
      </trkpt>
      <trkpt lat="46.24705" lon="-1.11281">
        <ele>13</ele>
        <time>2015-09-07T08:56:40.000Z</time>
      </trkpt>
      <trkpt lat="46.24712" lon="-1.11276">
        <ele>13</ele>
        <time>2015-09-07T08:56:48.000Z</time>
      </trkpt>
      <trkpt lat="46.24724" lon="-1.11268">
        <ele>13</ele>
        <time>2015-09-07T08:56:59.000Z</time>
      </trkpt>
      <trkpt lat="46.24735" lon="-1.1126">
        <ele>12.800000190735</ele>
        <time>2015-09-07T08:57:10.000Z</time>
      </trkpt>
      <trkpt lat="46.24741" lon="-1.11249">
        <ele>12.60000038147</ele>
        <time>2015-09-07T08:57:19.000Z</time>
      </trkpt>
      <trkpt lat="46.24744" lon="-1.11235">
        <ele>12.39999961853</ele>
        <time>2015-09-07T08:57:27.000Z</time>
      </trkpt>
      <trkpt lat="46.24742" lon="-1.11216">
        <ele>12</ele>
        <time>2015-09-07T08:57:37.000Z</time>
      </trkpt>
      <trkpt lat="46.24738" lon="-1.11202">
        <ele>11.60000038147</ele>
        <time>2015-09-07T08:57:45.000Z</time>
      </trkpt>
      <trkpt lat="46.24731" lon="-1.11184">
        <ele>11</ele>
        <time>2015-09-07T08:57:56.000Z</time>
      </trkpt>
      <trkpt lat="46.24724" lon="-1.11164">
        <ele>10.60000038147</ele>
        <time>2015-09-07T08:58:07.000Z</time>
      </trkpt>
      <trkpt lat="46.24718" lon="-1.11149">
        <ele>10.199999809265</ele>
        <time>2015-09-07T08:58:16.000Z</time>
      </trkpt>
      <trkpt lat="46.24712" lon="-1.11134">
        <ele>10.39999961853</ele>
        <time>2015-09-07T08:58:25.000Z</time>
      </trkpt>
      <trkpt lat="46.24708" lon="-1.11121">
        <ele>10.60000038147</ele>
        <time>2015-09-07T08:58:32.000Z</time>
      </trkpt>
      <trkpt lat="46.24704" lon="-1.11104">
        <ele>10.60000038147</ele>
        <time>2015-09-07T08:58:41.000Z</time>
      </trkpt>
      <trkpt lat="46.247" lon="-1.1108">
        <ele>10.39999961853</ele>
        <time>2015-09-07T08:58:53.000Z</time>
      </trkpt>
      <trkpt lat="46.24702" lon="-1.11066">
        <ele>10.199999809265</ele>
        <time>2015-09-07T08:59:01.000Z</time>
      </trkpt>
      <trkpt lat="46.24709" lon="-1.11057">
        <ele>10</ele>
        <time>2015-09-07T08:59:09.000Z</time>
      </trkpt>
      <trkpt lat="46.24715" lon="-1.1105">
        <ele>10</ele>
        <time>2015-09-07T08:59:16.000Z</time>
      </trkpt>
      <trkpt lat="46.24727" lon="-1.11051">
        <ele>10</ele>
        <time>2015-09-07T08:59:25.000Z</time>
      </trkpt>
      <trkpt lat="46.2474" lon="-1.11054">
        <ele>10</ele>
        <time>2015-09-07T08:59:36.000Z</time>
      </trkpt>
      <trkpt lat="46.24753" lon="-1.11056">
        <ele>10.199999809265</ele>
        <time>2015-09-07T08:59:47.000Z</time>
      </trkpt>
      <trkpt lat="46.24766" lon="-1.1106">
        <ele>10.39999961853</ele>
        <time>2015-09-07T08:59:57.000Z</time>
      </trkpt>
      <trkpt lat="46.24778" lon="-1.11065">
        <ele>10.60000038147</ele>
        <time>2015-09-07T09:00:07.000Z</time>
      </trkpt>
      <trkpt lat="46.2479" lon="-1.1107">
        <ele>10.800000190735</ele>
        <time>2015-09-07T09:00:17.000Z</time>
      </trkpt>
      <trkpt lat="46.248" lon="-1.11073">
        <ele>10.800000190735</ele>
        <time>2015-09-07T09:00:25.000Z</time>
      </trkpt>
      <trkpt lat="46.24805" lon="-1.11072">
        <ele>11</ele>
        <time>2015-09-07T09:00:29.000Z</time>
      </trkpt>
      <trkpt lat="46.24811" lon="-1.11071">
        <ele>11</ele>
        <time>2015-09-07T09:00:33.000Z</time>
      </trkpt>
      <trkpt lat="46.24824" lon="-1.11064">
        <ele>10.800000190735</ele>
        <time>2015-09-07T09:00:43.000Z</time>
      </trkpt>
      <trkpt lat="46.24836" lon="-1.11057">
        <ele>10.39999961853</ele>
        <time>2015-09-07T09:00:52.000Z</time>
      </trkpt>
      <trkpt lat="46.24849" lon="-1.11046">
        <ele>10.199999809265</ele>
        <time>2015-09-07T09:01:03.000Z</time>
      </trkpt>
      <trkpt lat="46.24864" lon="-1.11031">
        <ele>9.8000001907349</ele>
        <time>2015-09-07T09:01:16.000Z</time>
      </trkpt>
      <trkpt lat="46.24875" lon="-1.11021">
        <ele>9.3999996185303</ele>
        <time>2015-09-07T09:01:27.000Z</time>
      </trkpt>
      <trkpt lat="46.24889" lon="-1.11011">
        <ele>9.1999998092651</ele>
        <time>2015-09-07T09:01:39.000Z</time>
      </trkpt>
      <trkpt lat="46.24898" lon="-1.11009">
        <ele>8.8000001907349</ele>
        <time>2015-09-07T09:01:46.000Z</time>
      </trkpt>
      <trkpt lat="46.24907" lon="-1.1101">
        <ele>8.1999998092651</ele>
        <time>2015-09-07T09:01:53.000Z</time>
      </trkpt>
      <trkpt lat="46.24909" lon="-1.10999">
        <ele>8</ele>
        <time>2015-09-07T09:01:59.000Z</time>
      </trkpt>
      <trkpt lat="46.24908" lon="-1.10997">
        <ele>8.1999998092651</ele>
        <time>2015-09-07T09:02:00.000Z</time>
      </trkpt>
      <trkpt lat="46.24903" lon="-1.10982">
        <ele>8.3999996185303</ele>
        <time>2015-09-07T09:02:08.000Z</time>
      </trkpt>
      <trkpt lat="46.24907" lon="-1.10972">
        <ele>8.1999998092651</ele>
        <time>2015-09-07T09:02:14.000Z</time>
      </trkpt>
      <trkpt lat="46.24916" lon="-1.10966">
        <ele>7.4000000953674</ele>
        <time>2015-09-07T09:02:21.000Z</time>
      </trkpt>
      <trkpt lat="46.24927" lon="-1.10954">
        <ele>6.5999999046326</ele>
        <time>2015-09-07T09:02:30.000Z</time>
      </trkpt>
      <trkpt lat="46.24932" lon="-1.10934">
        <ele>6</ele>
        <time>2015-09-07T09:02:41.000Z</time>
      </trkpt>
      <trkpt lat="46.24933" lon="-1.1093">
        <ele>6</ele>
        <time>2015-09-07T09:02:43.000Z</time>
      </trkpt>
    </trkseg>
  </trk>
</gpx>